Observation data for Hackberry on 02/11/2019      Previous  Date       Current Mesonet Observations  Soil Data  Daily Summary Page  Observations in Plain Language
KHA3 110600Z 19003KT 07/06 A2993 RMK A01 T00730064  RH  094%=      5-min Rain = 0
KHA3 110601Z 19004KT 07/06 A2993 RMK A01 T00730064  RH  094%=      5-min Rain = 0
KHA3 110602Z 19003KT 07/06 A2993 RMK A01 T00730064  RH  094%=      5-min Rain = 0
KHA3 110603Z 18003KT 07/06 A2992 RMK A01 T00730064  RH  094%=      5-min Rain = 0
KHA3 110604Z 18004KT 07/06 A2992 RMK A01 T00730064  RH  094%=      5-min Rain = 0
KHA3 110605Z 19004KT 07/07 A2992 RMK A01 T00740065  RH  094%=      5-min Rain = 0
KHA3 110606Z 18003KT 07/07 A2992 RMK A01 T00740065  RH  094%=      5-min Rain = 0
KHA3 110607Z 16003KT 07/07 A2992 RMK A01 T00740065  RH  094%=      5-min Rain = 0
KHA3 110608Z 17004KT 07/07 A2992 RMK A01 T00740065  RH  094%=      5-min Rain = 0
KHA3 110609Z 15003KT 07/07 A2992 RMK A01 T00740065  RH  094%=      5-min Rain = 0
KHA3 110610Z 16003KT 07/07 A2992 RMK A01 T00740065  RH  094%=      5-min Rain = 0
KHA3 110611Z 16003KT 07/07 A2992 RMK A01 T00740065  RH  094%=      5-min Rain = 0
KHA3 110612Z 16004KT 07/07 A2991 RMK A01 T00740065  RH  094%=      5-min Rain = 0
KHA3 110613Z 16004KT 07/07 A2991 RMK A01 T00740065  RH  095%=      5-min Rain = 0
KHA3 110614Z 16005KT 07/07 A2991 RMK A01 T00740066  RH  095%=      5-min Rain = 0
KHA3 110615Z 15005KT 07/07 A2991 RMK A01 T00740066  RH  095%=      5-min Rain = 0
KHA3 110616Z 16006KT 07/07 A2991 RMK A01 T00740066  RH  095%=      5-min Rain = 0
KHA3 110617Z 15007KT 07/07 A2991 RMK A01 T00740066  RH  095%=      5-min Rain = 0
KHA3 110618Z 16007KT 07/07 A2991 RMK A01 T00740066  RH  095%=      5-min Rain = 0
KHA3 110619Z 16007KT 07/07 A299 RMK A01 T00740066  RH  095%=      5-min Rain = 0
KHA3 110620Z 16008KT 07/07 A299 RMK A01 T00740066  RH  095%=      5-min Rain = 0
KHA3 110621Z 16009KT 07/07 A299 RMK A01 T00740066  RH  095%=      5-min Rain = 0
KHA3 110622Z 16010KT 07/07 A299 RMK A01 T00740067  RH  095%=      5-min Rain = 0
KHA3 110623Z 16010KT 08/07 A299 RMK A01 T00750067  RH  095%=      5-min Rain = 0
KHA3 110624Z 16010KT 08/07 A299 RMK A01 T00750067  RH  095%=      5-min Rain = 0
KHA3 110625Z 16010KT 08/07 A299 RMK A01 T00760067  RH  094%=      5-min Rain = 0
KHA3 110626Z 16009KT 08/07 A299 RMK A01 T00750067  RH  094%=      5-min Rain = 0
KHA3 110627Z 17010KT 08/07 A299 RMK A01 T00760067  RH  094%=      5-min Rain = 0
KHA3 110628Z 17009KT 08/07 A299 RMK A01 T00760067  RH  094%=      5-min Rain = 0
KHA3 110629Z 17008KT 08/07 A299 RMK A01 T00760067  RH  094%=      5-min Rain = 0
KHA3 110630Z 17009KT 08/07 A299 RMK A01 T00760067  RH  094%=      5-min Rain = 0
KHA3 110631Z 17007KT 08/07 A299 RMK A01 T00760067  RH  094%=      5-min Rain = 0
KHA3 110632Z 17006KT 08/07 A299 RMK A01 T00760067  RH  094%=      5-min Rain = 0
KHA3 110633Z 17006KT 08/07 A299 RMK A01 T00760067  RH  094%=      5-min Rain = 0
KHA3 110634Z 18006KT 08/07 A299 RMK A01 T00750067  RH  094%=      5-min Rain = 0
KHA3 110635Z 18005KT 08/07 A299 RMK A01 T00750066  RH  094%=      5-min Rain = 0
KHA3 110636Z 19006KT 08/07 A299 RMK A01 T00750066  RH  094%=      5-min Rain = 0
KHA3 110637Z 18005KT 08/07 A299 RMK A01 T00750066  RH  094%=      5-min Rain = 0
KHA3 110638Z 18006KT 08/07 A299 RMK A01 T00760067  RH  094%=      5-min Rain = 0
KHA3 110639Z 18005KT 08/07 A299 RMK A01 T00760067  RH  094%=      5-min Rain = 0
KHA3 110640Z 17007KT 08/07 A299 RMK A01 T00750066  RH  094%=      5-min Rain = 0
KHA3 110641Z 17005KT 08/07 A299 RMK A01 T00750066  RH  094%=      5-min Rain = 0
KHA3 110642Z 17007KT 08/07 A299 RMK A01 T00750066  RH  094%=      5-min Rain = 0
KHA3 110643Z 17006KT 08/07 A299 RMK A01 T00760066  RH  094%=      5-min Rain = 0
KHA3 110644Z 17005KT 08/07 A299 RMK A01 T00760067  RH  094%=      5-min Rain = 0
KHA3 110645Z 17004KT 08/07 A299 RMK A01 T00760066  RH  094%=      5-min Rain = 0
KHA3 110646Z 16004KT 08/07 A299 RMK A01 T00760067  RH  094%=      5-min Rain = 0
KHA3 110647Z 17005KT 08/07 A299 RMK A01 T00760066  RH  094%=      5-min Rain = 0
KHA3 110648Z 17005KT 08/07 A299 RMK A01 T00760066  RH  094%=      5-min Rain = 0
KHA3 110649Z 16007KT 08/07 A299 RMK A01 T00760066  RH  094%=      5-min Rain = 0
KHA3 110650Z 17006KT 08/07 A299 RMK A01 T00750066  RH  094%=      5-min Rain = 0
KHA3 110651Z 18007KT 08/07 A299 RMK A01 T00750066  RH  094%=      5-min Rain = 0
KHA3 110652Z 17005KT 08/07 A299 RMK A01 T00760066  RH  094%=      5-min Rain = 0
KHA3 110653Z 18006KT 08/07 A299 RMK A01 T00760066  RH  094%=      5-min Rain = 0
KHA3 110654Z 17004KT 08/07 A2989 RMK A01 T00750066  RH  094%=      5-min Rain = 0
KHA3 110655Z 18005KT 08/07 A2989 RMK A01 T00750066  RH  094%=      5-min Rain = 0
KHA3 110656Z 17007KT 08/07 A2989 RMK A01 T00760067  RH  094%=      5-min Rain = 0
KHA3 110657Z 18007KT 08/07 A2989 RMK A01 T00760066  RH  094%=      5-min Rain = 0
KHA3 110658Z 18008KT 08/07 A2989 RMK A01 T00760066  RH  094%=      5-min Rain = 0
KHA3 110659Z 17008KT 08/07 A2989 RMK A01 T00760066  RH  094%=      5-min Rain = 0
KHA3 110700Z 17008KT 08/07 A2989 RMK A01 T00760067  RH  094%=      5-min Rain = 0
KHA3 110701Z 17008KT 08/07 A2989 RMK A01 T00760067  RH  094%=      5-min Rain = 0
KHA3 110702Z 17008KT 08/07 A2989 RMK A01 T00760067  RH  094%=      5-min Rain = 0
KHA3 110703Z 17009KT 08/07 A2989 RMK A01 T00760067  RH  094%=      5-min Rain = 0
KHA3 110704Z 18010KT 08/07 A2989 RMK A01 T00760067  RH  094%=      5-min Rain = 0
KHA3 110705Z 18009KT 08/07 A2989 RMK A01 T00760067  RH  094%=      5-min Rain = 0
KHA3 110706Z 18009KT 08/07 A2989 RMK A01 T00760067  RH  094%=      5-min Rain = 0
KHA3 110707Z 18009KT 08/07 A2989 RMK A01 T00760067  RH  094%=      5-min Rain = 0
KHA3 110708Z 18008KT 08/07 A2989 RMK A01 T00770067  RH  094%=      5-min Rain = 0
KHA3 110709Z 18008KT 08/07 A2989 RMK A01 T00760067  RH  094%=      5-min Rain = 0
KHA3 110710Z 18009KT 08/07 A2989 RMK A01 T00760067  RH  094%=      5-min Rain = 0
KHA3 110711Z 18007KT 08/07 A2989 RMK A01 T00760067  RH  094%=      5-min Rain = 0
KHA3 110712Z 19007KT 08/07 A2989 RMK A01 T00770067  RH  094%=      5-min Rain = 0
KHA3 110713Z 19007KT 08/07 A2988 RMK A01 T00760067  RH  094%=      5-min Rain = 0
KHA3 110714Z 19007KT 08/07 A2988 RMK A01 T00770067  RH  094%=      5-min Rain = 0
KHA3 110715Z 19008KT 08/07 A2988 RMK A01 T00770067  RH  094%=      5-min Rain = 0
KHA3 110716Z 19008KT 08/07 A2988 RMK A01 T00770067  RH  094%=      5-min Rain = 0
KHA3 110717Z 19009KT 08/07 A2988 RMK A01 T00770067  RH  093%=      5-min Rain = 0
KHA3 110718Z 19008KT 08/07 A2989 RMK A01 T00770067  RH  093%=      5-min Rain = 0
KHA3 110719Z 19008KT 08/07 A2989 RMK A01 T00770066  RH  093%=      5-min Rain = 0
KHA3 110720Z 19009KT 08/07 A2989 RMK A01 T00770067  RH  093%=      5-min Rain = 0
KHA3 110721Z 19010KT 08/07 A2989 RMK A01 T00770067  RH  093%=      5-min Rain = 0
KHA3 110722Z 19010KT 08/07 A2989 RMK A01 T00760067  RH  093%=      5-min Rain = 0
KHA3 110723Z 19009KT 08/07 A2988 RMK A01 T00770067  RH  094%=      5-min Rain = 0
KHA3 110724Z 19009KT 08/07 A2988 RMK A01 T00760066  RH  094%=      5-min Rain = 0
KHA3 110725Z 18010KT 08/07 A2988 RMK A01 T00760067  RH  094%=      5-min Rain = 0
KHA3 110726Z 19009KT 08/07 A2988 RMK A01 T00760067  RH  094%=      5-min Rain = 0
KHA3 110727Z 19009KT 08/07 A2988 RMK A01 T00760067  RH  094%=      5-min Rain = 0
KHA3 110728Z 18010KT 08/07 A2988 RMK A01 T00760067  RH  094%=      5-min Rain = 0
KHA3 110729Z 18011KT 08/07 A2988 RMK A01 T00760067  RH  094%=      5-min Rain = 0
KHA3 110730Z 18011KT 08/07 A2988 RMK A01 T00760067  RH  094%=      5-min Rain = 0
KHA3 110731Z 18012KT 08/07 A2988 RMK A01 T00760067  RH  094%=      5-min Rain = 0
KHA3 110732Z 18010KT 08/07 A2988 RMK A01 T00760067  RH  094%=      5-min Rain = 0
KHA3 110733Z 19010KT 08/07 A2988 RMK A01 T00760067  RH  094%=      5-min Rain = 0
KHA3 110734Z 19011KT 08/07 A2988 RMK A01 T00760067  RH  094%=      5-min Rain = 0
KHA3 110735Z 19012KT 08/07 A2988 RMK A01 T00760067  RH  094%=      5-min Rain = 0
KHA3 110736Z 19012KT 08/07 A2988 RMK A01 T00760067  RH  094%=      5-min Rain = 0
KHA3 110737Z 19011KT 08/07 A2988 RMK A01 T00760067  RH  094%=      5-min Rain = 0
KHA3 110738Z 19009KT 08/07 A2987 RMK A01 T00770068  RH  094%=      5-min Rain = 0
KHA3 110739Z 19009KT 08/07 A2987 RMK A01 T00760067  RH  094%=      5-min Rain = 0
KHA3 110740Z 19010KT 08/07 A2987 RMK A01 T00760068  RH  094%=      5-min Rain = 0
KHA3 110741Z 19009KT 08/07 A2987 RMK A01 T00770068  RH  094%=      5-min Rain = 0
KHA3 110742Z 19010KT 08/07 A2987 RMK A01 T00760068  RH  094%=      5-min Rain = 0
KHA3 110743Z 20010KT 08/07 A2987 RMK A01 T00770068  RH  094%=      5-min Rain = 0
KHA3 110744Z 19011KT 08/07 A2987 RMK A01 T00760068  RH  094%=      5-min Rain = 0
KHA3 110745Z 19011KT 08/07 A2987 RMK A01 T00770068  RH  094%=      5-min Rain = 0
KHA3 110746Z 19011KT 08/07 A2987 RMK A01 T00770068  RH  094%=      5-min Rain = 0
KHA3 110747Z 19010KT 08/07 A2987 RMK A01 T00770068  RH  094%=      5-min Rain = 0
KHA3 110748Z 19010KT 08/07 A2987 RMK A01 T00770068  RH  094%=      5-min Rain = 0
KHA3 110749Z 19012KT 08/07 A2987 RMK A01 T00770068  RH  094%=      5-min Rain = 0
KHA3 110750Z 19011KT 08/07 A2987 RMK A01 T00770068  RH  094%=      5-min Rain = 0
KHA3 110751Z 19011KT 08/07 A2987 RMK A01 T00770068  RH  094%=      5-min Rain = 0
KHA3 110752Z 19011KT 08/07 A2987 RMK A01 T00770068  RH  094%=      5-min Rain = 0
KHA3 110753Z 19012KT 08/07 A2987 RMK A01 T00770068  RH  094%=      5-min Rain = 0
KHA3 110754Z 19012KT 08/07 A2986 RMK A01 T00770069  RH  094%=      5-min Rain = 0
KHA3 110755Z 19012KT 08/07 A2986 RMK A01 T00780069  RH  094%=      5-min Rain = 0
KHA3 110756Z 19012KT 08/07 A2986 RMK A01 T00780069  RH  094%=      5-min Rain = 0
KHA3 110757Z 19012KT 08/07 A2986 RMK A01 T00780069  RH  094%=      5-min Rain = 0
KHA3 110758Z 19013KT 08/07 A2986 RMK A01 T00780069  RH  094%=      5-min Rain = 0
KHA3 110759Z 19014KT 08/07 A2986 RMK A01 T00780069  RH  094%=      5-min Rain = 0
KHA3 110800Z 19013KT 08/07 A2986 RMK A01 T00790070  RH  094%=      5-min Rain = 0
KHA3 110801Z 19013KT 08/07 A2986 RMK A01 T00790070  RH  094%=      5-min Rain = 0
KHA3 110802Z 19013KT 08/07 A2986 RMK A01 T00790070  RH  094%=      5-min Rain = 0
KHA3 110803Z 19014KT 08/07 A2986 RMK A01 T00790070  RH  094%=      5-min Rain = 0
KHA3 110804Z 19013KT 08/07 A2986 RMK A01 T00790070  RH  094%=      5-min Rain = 0
KHA3 110805Z 19013KT 08/07 A2986 RMK A01 T00790070  RH  094%=      5-min Rain = 0
KHA3 110806Z 19015KT 08/07 A2986 RMK A01 T00790070  RH  094%=      5-min Rain = 0
KHA3 110807Z 19015KT 08/07 A2986 RMK A01 T00800070  RH  094%=      5-min Rain = 0
KHA3 110808Z 19015KT 08/07 A2986 RMK A01 T00800071  RH  094%=      5-min Rain = 0
KHA3 110809Z 19015KT 08/07 A2986 RMK A01 T00810071  RH  094%=      5-min Rain = 0
KHA3 110810Z 19015KT 08/07 A2985 RMK A01 T00810071  RH  093%=      5-min Rain = 0
KHA3 110811Z 19014KT 08/07 A2985 RMK A01 T00820072  RH  093%=      5-min Rain = 0
KHA3 110812Z 19015KT 08/07 A2985 RMK A01 T00820072  RH  093%=      5-min Rain = 0
KHA3 110813Z 19016KT 08/07 A2985 RMK A01 T00820072  RH  093%=      5-min Rain = 0
KHA3 110814Z 19016KT 08/07 A2985 RMK A01 T00830072  RH  093%=      5-min Rain = 0
KHA3 110815Z 19016KT 08/07 A2985 RMK A01 T00830072  RH  093%=      5-min Rain = 0
KHA3 110816Z 20015KT 08/07 A2985 RMK A01 T00830071  RH  093%=      5-min Rain = 0
KHA3 110817Z 20015KT 08/07 A2985 RMK A01 T00830072  RH  093%=      5-min Rain = 0
KHA3 110818Z 20015KT 08/07 A2985 RMK A01 T00830072  RH  093%=      5-min Rain = 0
KHA3 110819Z 20015G20KT 08/07 A2985 RMK A01 T00830072  RH  093%=      5-min Rain = 0
KHA3 110820Z 20016KT 08/07 A2985 RMK A01 T00830072  RH  093%=      5-min Rain = 0
KHA3 110821Z 20015KT 08/07 A2985 RMK A01 T00840073  RH  093%=      5-min Rain = 0
KHA3 110822Z 19017KT 08/07 A2985 RMK A01 T00840073  RH  093%=      5-min Rain = 0
KHA3 110823Z 20016KT 09/07 A2985 RMK A01 T00850073  RH  092%=      5-min Rain = 0
KHA3 110824Z 20018KT 09/07 A2985 RMK A01 T00850073  RH  092%=      5-min Rain = 0
KHA3 110825Z 20017KT 09/07 A2985 RMK A01 T00850073  RH  092%=      5-min Rain = 0
KHA3 110826Z 20014KT 09/07 A2985 RMK A01 T00850073  RH  092%=      5-min Rain = 0
KHA3 110827Z 20016KT 09/07 A2985 RMK A01 T00850073  RH  092%=      5-min Rain = 0
KHA3 110828Z 20016KT 09/07 A2985 RMK A01 T00850073  RH  092%=      5-min Rain = 0
KHA3 110829Z 20017KT 09/07 A2985 RMK A01 T00850073  RH  092%=      5-min Rain = 0
KHA3 110830Z 20017KT 09/07 A2985 RMK A01 T00850073  RH  092%=      5-min Rain = 0
KHA3 110831Z 20015KT 09/07 A2985 RMK A01 T00850073  RH  092%=      5-min Rain = 0
KHA3 110832Z 21015KT 09/07 A2985 RMK A01 T00850073  RH  092%=      5-min Rain = 0
KHA3 110833Z 20015KT 09/07 A2985 RMK A01 T00850073  RH  092%=      5-min Rain = 0
KHA3 110834Z 21018KT 09/07 A2985 RMK A01 T00850073  RH  092%=      5-min Rain = 0
KHA3 110835Z 20015KT 09/07 A2985 RMK A01 T00850073  RH  092%=      5-min Rain = 0
KHA3 110836Z 20015KT 08/07 A2985 RMK A01 T00840072  RH  092%=      5-min Rain = 0
KHA3 110837Z 21016KT 09/07 A2985 RMK A01 T00850073  RH  092%=      5-min Rain = 0
KHA3 110838Z 21016KT 08/07 A2985 RMK A01 T00840073  RH  092%=      5-min Rain = 0
KHA3 110839Z 21015KT 08/07 A2985 RMK A01 T00840072  RH  092%=      5-min Rain = 0
KHA3 110840Z 21015KT 08/07 A2985 RMK A01 T00840072  RH  092%=      5-min Rain = 0
KHA3 110841Z 21015KT 08/07 A2985 RMK A01 T00830072  RH  093%=      5-min Rain = 0
KHA3 110842Z 21014KT 08/07 A2985 RMK A01 T00830072  RH  093%=      5-min Rain = 0
KHA3 110843Z 21014KT 08/07 A2985 RMK A01 T00840072  RH  093%=      5-min Rain = 0
KHA3 110844Z 21013KT 08/07 A2986 RMK A01 T00830072  RH  093%=      5-min Rain = 0
KHA3 110845Z 21014KT 08/07 A2986 RMK A01 T00830072  RH  093%=      5-min Rain = 0
KHA3 110846Z 21013KT 08/07 A2986 RMK A01 T00830072  RH  093%=      5-min Rain = 0
KHA3 110847Z 21012KT 08/07 A2986 RMK A01 T00830072  RH  093%=      5-min Rain = 0
KHA3 110848Z 21013KT 08/07 A2986 RMK A01 T00830072  RH  093%=      5-min Rain = 0
KHA3 110849Z 22013KT 08/07 A2986 RMK A01 T00830072  RH  093%=      5-min Rain = 0
KHA3 110850Z 21013KT 08/07 A2986 RMK A01 T00830072  RH  093%=      5-min Rain = 0
KHA3 110851Z 21013KT 08/07 A2986 RMK A01 T00830072  RH  093%=      5-min Rain = 0
KHA3 110852Z 21013KT 08/07 A2986 RMK A01 T00830072  RH  093%=      5-min Rain = 0
KHA3 110853Z 21014KT 08/07 A2986 RMK A01 T00830072  RH  093%=      5-min Rain = 0
KHA3 110854Z 21012KT 08/07 A2986 RMK A01 T00830072  RH  093%=      5-min Rain = 0
KHA3 110855Z 21013KT 08/07 A2986 RMK A01 T00830072  RH  093%=      5-min Rain = 0
KHA3 110856Z 20014KT 08/07 A2986 RMK A01 T00830072  RH  093%=      5-min Rain = 0
KHA3 110857Z 20013KT 08/07 A2986 RMK A01 T00830072  RH  093%=      5-min Rain = 0
KHA3 110858Z 20014KT 08/07 A2986 RMK A01 T00830072  RH  093%=      5-min Rain = 0
KHA3 110859Z 21013KT 08/07 A2986 RMK A01 T00830072  RH  093%=      5-min Rain = 0
KHA3 110900Z 20013KT 08/07 A2986 RMK A01 T00830072  RH  093%=      5-min Rain = 0
KHA3 110901Z 20012KT 08/07 A2985 RMK A01 T00830072  RH  093%=      5-min Rain = 0
KHA3 110902Z 21013KT 08/07 A2985 RMK A01 T00820072  RH  093%=      5-min Rain = 0
KHA3 110903Z 20013KT 08/07 A2985 RMK A01 T00820072  RH  093%=      5-min Rain = 0
KHA3 110904Z 20014KT 08/07 A2985 RMK A01 T00820072  RH  093%=      5-min Rain = 0
KHA3 110905Z 20014KT 08/07 A2985 RMK A01 T00820072  RH  093%=      5-min Rain = 0
KHA3 110906Z 21014KT 08/07 A2985 RMK A01 T00820072  RH  093%=      5-min Rain = 0
KHA3 110907Z 20013KT 08/07 A2985 RMK A01 T00820071  RH  093%=      5-min Rain = 0
KHA3 110908Z 20012KT 08/07 A2985 RMK A01 T00820071  RH  093%=      5-min Rain = 0
KHA3 110909Z 21013KT 08/07 A2985 RMK A01 T00820072  RH  093%=      5-min Rain = 0
KHA3 110910Z 21013KT 08/07 A2985 RMK A01 T00830072  RH  093%=      5-min Rain = 0
KHA3 110911Z 20014KT 08/07 A2985 RMK A01 T00820072  RH  093%=      5-min Rain = 0
KHA3 110912Z 20013KT 08/07 A2984 RMK A01 T00820072  RH  093%=      5-min Rain = 0
KHA3 110913Z 20013KT 08/07 A2984 RMK A01 T00820072  RH  093%=      5-min Rain = 0
KHA3 110914Z 20014KT 08/07 A2984 RMK A01 T00830072  RH  093%=      5-min Rain = 0
KHA3 110915Z 20012KT 08/07 A2984 RMK A01 T00830072  RH  093%=      5-min Rain = 0
KHA3 110916Z 20011KT 08/07 A2984 RMK A01 T00820071  RH  093%=      5-min Rain = 0
KHA3 110917Z 20011KT 08/07 A2984 RMK A01 T00820071  RH  093%=      5-min Rain = 0
KHA3 110918Z 20010KT 08/07 A2984 RMK A01 T00820071  RH  093%=      5-min Rain = 0
KHA3 110919Z 20012KT 08/07 A2984 RMK A01 T00810071  RH  093%=      5-min Rain = 0
KHA3 110920Z 20011KT 08/07 A2984 RMK A01 T00810071  RH  093%=      5-min Rain = 0
KHA3 110921Z 20012KT 08/07 A2984 RMK A01 T00810071  RH  093%=      5-min Rain = 0
KHA3 110922Z 20012KT 08/07 A2984 RMK A01 T00810071  RH  093%=      5-min Rain = 0
KHA3 110923Z 20012KT 08/07 A2984 RMK A01 T00810071  RH  093%=      5-min Rain = 0
KHA3 110924Z 20011KT 08/07 A2984 RMK A01 T00820072  RH  093%=      5-min Rain = 0
KHA3 110925Z 20011KT 08/07 A2984 RMK A01 T00820071  RH  093%=      5-min Rain = 0
KHA3 110926Z 20011KT 08/07 A2984 RMK A01 T00820072  RH  093%=      5-min Rain = 0
KHA3 110927Z 20012KT 08/07 A2984 RMK A01 T00820072  RH  093%=      5-min Rain = 0
KHA3 110928Z 20012KT 08/07 A2984 RMK A01 T00820071  RH  093%=      5-min Rain = 0
KHA3 110929Z 20011KT 08/07 A2984 RMK A01 T00820071  RH  093%=      5-min Rain = 0
KHA3 110930Z 20010KT 08/07 A2984 RMK A01 T00830072  RH  093%=      5-min Rain = 0
KHA3 110931Z 19011KT 08/07 A2984 RMK A01 T00820072  RH  093%=      5-min Rain = 0
KHA3 110932Z 20010KT 08/07 A2984 RMK A01 T00820072  RH  093%=      5-min Rain = 0
KHA3 110933Z 19010KT 08/07 A2984 RMK A01 T00820071  RH  093%=      5-min Rain = 0
KHA3 110934Z 19011KT 08/07 A2984 RMK A01 T00820071  RH  093%=      5-min Rain = 0
KHA3 110935Z 19010KT 08/07 A2984 RMK A01 T00820072  RH  093%=      5-min Rain = 0
KHA3 110936Z 19009KT 08/07 A2984 RMK A01 T00820071  RH  093%=      5-min Rain = 0
KHA3 110937Z 19010KT 08/07 A2984 RMK A01 T00820071  RH  093%=      5-min Rain = 0
KHA3 110938Z 19010KT 08/07 A2983 RMK A01 T00820071  RH  093%=      5-min Rain = 0
KHA3 110939Z 20009KT 08/07 A2983 RMK A01 T00820071  RH  093%=      5-min Rain = 0
KHA3 110940Z 20009KT 08/07 A2984 RMK A01 T00820071  RH  093%=      5-min Rain = 0
KHA3 110941Z 20009KT 08/07 A2984 RMK A01 T00820071  RH  093%=      5-min Rain = 0
KHA3 110942Z 20011KT 08/07 A2984 RMK A01 T00820072  RH  093%=      5-min Rain = 0
KHA3 110943Z 20011KT 08/07 A2984 RMK A01 T00830072  RH  093%=      5-min Rain = 0
KHA3 110944Z 20010KT 08/07 A2984 RMK A01 T00840072  RH  093%=      5-min Rain = 0
KHA3 110945Z 19009KT 08/07 A2983 RMK A01 T00840072  RH  093%=      5-min Rain = 0
KHA3 110946Z 19010KT 08/07 A2983 RMK A01 T00840072  RH  093%=      5-min Rain = 0
KHA3 110947Z 19009KT 08/07 A2983 RMK A01 T00840072  RH  092%=      5-min Rain = 0
KHA3 110948Z 19011KT 08/07 A2983 RMK A01 T00840073  RH  092%=      5-min Rain = 0
KHA3 110949Z 19010KT 09/07 A2983 RMK A01 T00850073  RH  092%=      5-min Rain = 0
KHA3 110950Z 19009KT 09/07 A2983 RMK A01 T00850073  RH  092%=      5-min Rain = 0
KHA3 110951Z 19010KT 09/07 A2983 RMK A01 T00860073  RH  092%=      5-min Rain = 0
KHA3 110952Z 20011KT 09/07 A2983 RMK A01 T00860073  RH  092%=      5-min Rain = 0
KHA3 110953Z 19009KT 09/07 A2983 RMK A01 T00860073  RH  092%=      5-min Rain = 0
KHA3 110954Z 20008KT 09/07 A2983 RMK A01 T00870074  RH  092%=      5-min Rain = 0
KHA3 110955Z 20010KT 09/07 A2983 RMK A01 T00870074  RH  092%=      5-min Rain = 0
KHA3 110956Z 19010KT 09/07 A2983 RMK A01 T00860074  RH  092%=      5-min Rain = 0
KHA3 110957Z 19008KT 09/07 A2983 RMK A01 T00870074  RH  092%=      5-min Rain = 0
KHA3 110958Z 19008KT 09/07 A2983 RMK A01 T00870074  RH  092%=      5-min Rain = 0
KHA3 110959Z 19010KT 09/07 A2983 RMK A01 T00860073  RH  092%=      5-min Rain = 0
KHA3 111000Z 20009KT 09/07 A2983 RMK A01 T00860074  RH  092%=      5-min Rain = 0
KHA3 111001Z 20009KT 09/07 A2983 RMK A01 T00860073  RH  092%=      5-min Rain = 0
KHA3 111002Z 20010KT 09/07 A2983 RMK A01 T00860073  RH  092%=      5-min Rain = 0
KHA3 111003Z 19010KT 09/07 A2983 RMK A01 T00860073  RH  092%=      5-min Rain = 0
KHA3 111004Z 20011KT 09/07 A2983 RMK A01 T00860073  RH  092%=      5-min Rain = 0
KHA3 111005Z 19010KT 09/07 A2983 RMK A01 T00860073  RH  092%=      5-min Rain = 0
KHA3 111006Z 19010KT 09/07 A2983 RMK A01 T00860073  RH  092%=      5-min Rain = 0
KHA3 111007Z 19010KT 09/07 A2983 RMK A01 T00860073  RH  092%=      5-min Rain = 0
KHA3 111008Z 19010KT 09/07 A2982 RMK A01 T00860073  RH  092%=      5-min Rain = 0
KHA3 111009Z 19009KT 09/07 A2982 RMK A01 T00860073  RH  092%=      5-min Rain = 0
KHA3 111010Z 19011KT 09/07 A2982 RMK A01 T00860073  RH  092%=      5-min Rain = 0
KHA3 111011Z 19010KT 09/07 A2982 RMK A01 T00860074  RH  092%=      5-min Rain = 0
KHA3 111012Z 19008KT 09/07 A2982 RMK A01 T00850073  RH  092%=      5-min Rain = 0
KHA3 111013Z 19009KT 09/07 A2982 RMK A01 T00860073  RH  092%=      5-min Rain = 0
KHA3 111014Z 19008KT 09/07 A2982 RMK A01 T00860074  RH  092%=      5-min Rain = 0
KHA3 111015Z 19008KT 09/07 A2982 RMK A01 T00860073  RH  092%=      5-min Rain = 0
KHA3 111016Z 19009KT 09/07 A2982 RMK A01 T00850073  RH  092%=      5-min Rain = 0
KHA3 111017Z 19009KT 09/07 A2982 RMK A01 T00850073  RH  092%=      5-min Rain = 0
KHA3 111018Z 18008KT 09/07 A2982 RMK A01 T00850073  RH  092%=      5-min Rain = 0
KHA3 111019Z 18008KT 09/07 A2982 RMK A01 T00850073  RH  092%=      5-min Rain = 0
KHA3 111020Z 18008KT 09/07 A2982 RMK A01 T00850073  RH  092%=      5-min Rain = 0
KHA3 111021Z 18008KT 09/07 A2981 RMK A01 T00850073  RH  092%=      5-min Rain = 0
KHA3 111022Z 18009KT 09/07 A2981 RMK A01 T00850073  RH  092%=      5-min Rain = 0
KHA3 111023Z 18009KT 09/07 A2981 RMK A01 T00850074  RH  093%=      5-min Rain = 0
KHA3 111024Z 18009KT 09/07 A2981 RMK A01 T00850074  RH  093%=      5-min Rain = 0
KHA3 111025Z 17009KT 09/07 A2981 RMK A01 T00850074  RH  093%=      5-min Rain = 0
KHA3 111026Z 18010KT 09/08 A2981 RMK A01 T00850075  RH  093%=      5-min Rain = 0
KHA3 111027Z 18010KT 09/08 A2981 RMK A01 T00850075  RH  093%=      5-min Rain = 0
KHA3 111028Z 18011KT 09/08 A2981 RMK A01 T00850075  RH  093%=      5-min Rain = 0
KHA3 111029Z 19011KT 09/08 A2981 RMK A01 T00850075  RH  093%=      5-min Rain = 0
KHA3 111030Z 18011KT 09/08 A2981 RMK A01 T00850075  RH  093%=      5-min Rain = 0
KHA3 111031Z 18012KT 09/08 A2981 RMK A01 T00850075  RH  093%=      5-min Rain = 0
KHA3 111032Z 18012KT 09/08 A2981 RMK A01 T00860075  RH  093%=      5-min Rain = 0
KHA3 111033Z 18011KT 09/08 A2981 RMK A01 T00860075  RH  093%=      5-min Rain = 0
KHA3 111034Z 18011KT 09/08 A298 RMK A01 T00860076  RH  093%=      5-min Rain = 0
KHA3 111035Z 18012KT 09/08 A298 RMK A01 T00860076  RH  093%=      5-min Rain = 0
KHA3 111036Z 18011KT 09/08 A298 RMK A01 T00850076  RH  094%=      5-min Rain = 0
KHA3 111037Z 18012KT 09/08 A298 RMK A01 T00850076  RH  094%=      5-min Rain = 0
KHA3 111038Z 18012KT 09/08 A298 RMK A01 T00850076  RH  094%=      5-min Rain = 0
KHA3 111039Z 18013KT 09/08 A298 RMK A01 T00850075  RH  094%=      5-min Rain = 0
KHA3 111040Z 18012KT 09/08 A298 RMK A01 T00850075  RH  093%=      5-min Rain = 0
KHA3 111041Z 18012KT 09/08 A298 RMK A01 T00860075  RH  093%=      5-min Rain = 0
KHA3 111042Z 19013KT 09/08 A298 RMK A01 T00860075  RH  093%=      5-min Rain = 0
KHA3 111043Z 19013KT 09/08 A298 RMK A01 T00860075  RH  093%=      5-min Rain = 0
KHA3 111044Z 19011KT 09/08 A2981 RMK A01 T00860075  RH  093%=      5-min Rain = 0
KHA3 111045Z 20012KT 09/08 A2981 RMK A01 T00860075  RH  093%=      5-min Rain = 0
KHA3 111046Z 20011KT 09/08 A2981 RMK A01 T00870075  RH  092%=      5-min Rain = 0
KHA3 111047Z 20011KT 09/08 A2981 RMK A01 T00870075  RH  092%=      5-min Rain = 0
KHA3 111048Z 20011KT 09/08 A2981 RMK A01 T00870075  RH  092%=      5-min Rain = 0
KHA3 111049Z 20012KT 09/08 A2981 RMK A01 T00860075  RH  092%=      5-min Rain = 0
KHA3 111050Z 21010KT 09/08 A298 RMK A01 T00870075  RH  093%=      5-min Rain = 0
KHA3 111051Z 21009KT 09/08 A2981 RMK A01 T00860075  RH  092%=      5-min Rain = 0
KHA3 111052Z 22010KT 09/08 A2981 RMK A01 T00870075  RH  092%=      5-min Rain = 0
KHA3 111053Z 21010KT 09/08 A2981 RMK A01 T00860075  RH  092%=      5-min Rain = 0
KHA3 111054Z 20010KT 09/08 A298 RMK A01 T00860075  RH  092%=      5-min Rain = 0
KHA3 111055Z 20011KT 09/08 A298 RMK A01 T00870075  RH  092%=      5-min Rain = 0
KHA3 111056Z 20010KT 09/08 A298 RMK A01 T00870075  RH  092%=      5-min Rain = 0
KHA3 111057Z 20011KT 09/08 A298 RMK A01 T00870075  RH  092%=      5-min Rain = 0
KHA3 111058Z 20011KT 09/08 A298 RMK A01 T00860075  RH  092%=      5-min Rain = 0
KHA3 111059Z 20011KT 09/08 A298 RMK A01 T00870075  RH  092%=      5-min Rain = 0
KHA3 111100Z 20013KT 09/07 A2979 RMK A01 T00870074  RH  092%=      5-min Rain = 0
KHA3 111101Z 20012KT 09/07 A2979 RMK A01 T00870074  RH  091%=      5-min Rain = 0
KHA3 111102Z 20012KT 09/07 A2979 RMK A01 T00880074  RH  091%=      5-min Rain = 0
KHA3 111103Z 20012KT 09/07 A2979 RMK A01 T00880074  RH  091%=      5-min Rain = 0
KHA3 111104Z 20011KT 09/07 A2979 RMK A01 T00880074  RH  091%=      5-min Rain = 0
KHA3 111105Z 19011KT 09/07 A2979 RMK A01 T00880074  RH  091%=      5-min Rain = 0
KHA3 111106Z 20010KT 09/07 A2979 RMK A01 T00870074  RH  091%=      5-min Rain = 0
KHA3 111107Z 20012KT 09/07 A2979 RMK A01 T00870074  RH  092%=      5-min Rain = 0
KHA3 111108Z 20013KT 09/07 A2979 RMK A01 T00870074  RH  091%=      5-min Rain = 0
KHA3 111109Z 20013KT 09/07 A2979 RMK A01 T00880074  RH  091%=      5-min Rain = 0
KHA3 111110Z 20013KT 09/07 A2979 RMK A01 T00880073  RH  090%=      5-min Rain = 0
KHA3 111111Z 19013KT 09/07 A2979 RMK A01 T00880073  RH  090%=      5-min Rain = 0
KHA3 111112Z 19012KT 09/07 A2979 RMK A01 T00880073  RH  090%=      5-min Rain = 0
KHA3 111113Z 19012KT 09/07 A2979 RMK A01 T00880073  RH  090%=      5-min Rain = 0
KHA3 111114Z 20011KT 09/07 A2979 RMK A01 T00880073  RH  091%=      5-min Rain = 0
KHA3 111115Z 19012KT 09/07 A2979 RMK A01 T00870073  RH  090%=      5-min Rain = 0
KHA3 111116Z 19011KT 09/07 A2979 RMK A01 T00870073  RH  090%=      5-min Rain = 0
KHA3 111117Z 19012KT 09/07 A2979 RMK A01 T00870073  RH  090%=      5-min Rain = 0
KHA3 111118Z 20014KT 09/07 A2978 RMK A01 T00870072  RH  090%=      5-min Rain = 0
KHA3 111119Z 20015KT 09/07 A2978 RMK A01 T00880071  RH  089%=      5-min Rain = 0
KHA3 111120Z 20014KT 09/07 A2978 RMK A01 T00900071  RH  088%=      5-min Rain = 0
KHA3 111121Z 20014KT 09/07 A2978 RMK A01 T00900071  RH  088%=      5-min Rain = 0
KHA3 111122Z 20013KT 09/07 A2978 RMK A01 T00900071  RH  088%=      5-min Rain = 0
KHA3 111123Z 20015KT 09/07 A2978 RMK A01 T00890071  RH  088%=      5-min Rain = 0
KHA3 111124Z 20015KT 09/07 A2978 RMK A01 T00890071  RH  088%=      5-min Rain = 0
KHA3 111125Z 20014KT 09/07 A2978 RMK A01 T00890071  RH  088%=      5-min Rain = 0
KHA3 111126Z 19014KT 09/07 A2978 RMK A01 T00890070  RH  088%=      5-min Rain = 0
KHA3 111127Z 19014KT 09/07 A2978 RMK A01 T00900070  RH  087%=      5-min Rain = 0
KHA3 111128Z 20015KT 09/07 A2978 RMK A01 T00900070  RH  087%=      5-min Rain = 0
KHA3 111129Z 20013KT 09/07 A2978 RMK A01 T00900069  RH  087%=      5-min Rain = 0
KHA3 111130Z 20013KT 09/07 A2978 RMK A01 T00900070  RH  088%=      5-min Rain = 0
KHA3 111131Z 21013KT 09/07 A2978 RMK A01 T00890070  RH  088%=      5-min Rain = 0
KHA3 111132Z 21015KT 09/07 A2978 RMK A01 T00890070  RH  088%=      5-min Rain = 0
KHA3 111133Z 21012KT 09/07 A2978 RMK A01 T00890070  RH  088%=      5-min Rain = 0
KHA3 111134Z 21011KT 09/07 A2979 RMK A01 T00890070  RH  088%=      5-min Rain = 0
KHA3 111135Z 22009KT 09/07 A2979 RMK A01 T00890070  RH  088%=      5-min Rain = 0
KHA3 111136Z 25008KT 09/07 A298 RMK A01 T00890070  RH  088%=      5-min Rain = 0
KHA3 111137Z 31010KT 09/07 A298 RMK A01 T00890070  RH  088%=      5-min Rain = 0
KHA3 111138Z 33012KT 09/07 A2981 RMK A01 T00880070  RH  088%=      5-min Rain = 0
KHA3 111139Z 33011KT 09/07 A298 RMK A01 T00860070  RH  090%=      5-min Rain = 0
KHA3 111140Z 34008KT 08/07 A298 RMK A01 T00840070  RH  091%=      5-min Rain = 0
KHA3 111141Z 33012KT 08/07 A298 RMK A01 T00830070  RH  091%=      5-min Rain = 0
KHA3 111142Z 33009KT 08/07 A298 RMK A01 T00830070  RH  092%=      5-min Rain = 0
KHA3 111143Z 25008KT 09/07 A298 RMK A01 T00860071  RH  090%=      5-min Rain = 0
KHA3 111144Z 21007KT 09/07 A298 RMK A01 T00880070  RH  088%=      5-min Rain = 0
KHA3 111145Z 20013KT 09/07 A2979 RMK A01 T00900070  RH  087%=      5-min Rain = 0
KHA3 111146Z 21013G19KT 09/07 A2979 RMK A01 T00920070  RH  086%=      5-min Rain = 0
KHA3 111147Z 22011KT 09/07 A2979 RMK A01 T00930069  RH  085%=      5-min Rain = 0
KHA3 111148Z 25008KT 09/07 A298 RMK A01 T00930069  RH  085%=      5-min Rain = 0
KHA3 111149Z 27009KT 09/07 A298 RMK A01 T00920069  RH  086%=      5-min Rain = 0
KHA3 111150Z 29010KT 09/07 A2981 RMK A01 T00910069  RH  086%=      5-min Rain = 0
KHA3 111151Z 30012KT 09/07 A2981 RMK A01 T00910069  RH  086%=      5-min Rain = 0
KHA3 111152Z 31011KT 09/07 A298 RMK A01 T00890069  RH  087%=      5-min Rain = 0
KHA3 111153Z 31009KT 09/07 A298 RMK A01 T00870068  RH  088%=      5-min Rain = 0
KHA3 111154Z 29007KT 09/07 A298 RMK A01 T00860068  RH  089%=      5-min Rain = 0
KHA3 111155Z 26007KT 09/07 A298 RMK A01 T00850068  RH  089%=      5-min Rain = 0
KHA3 111156Z 23008KT 08/07 A2979 RMK A01 T00840068  RH  090%=      5-min Rain = 0
KHA3 111157Z 22008KT 08/07 A2979 RMK A01 T00840068  RH  090%=      5-min Rain = 0
KHA3 111158Z 22009KT 08/07 A2979 RMK A01 T00840068  RH  090%=      5-min Rain = 0
KHA3 111159Z 22010KT 08/07 A2979 RMK A01 T00830067  RH  090%=      5-min Rain = 0
KHA3 111200Z 21009KT 08/07 A2979 RMK A01 T00820067  RH  090%=      5-min Rain = 0
KHA3 111201Z 23008KT 08/07 A2979 RMK A01 T00830068  RH  090%=      5-min Rain = 0
KHA3 111202Z 25007KT 08/07 A2979 RMK A01 T00840068  RH  090%=      5-min Rain = 0
KHA3 111203Z 27005KT 08/07 A298 RMK A01 T00830067  RH  089%=      5-min Rain = 0
KHA3 111204Z 30006KT 08/07 A298 RMK A01 T00820066  RH  090%=      5-min Rain = 0
KHA3 111205Z 33008KT 08/07 A298 RMK A01 T00800065  RH  090%=      5-min Rain = 0
KHA3 111206Z 34010KT 08/06 A2981 RMK A01 T00790064  RH  090%=      5-min Rain = 0
KHA3 111207Z 34010KT 08/06 A2981 RMK A01 T00770064  RH  091%=      5-min Rain = 0
KHA3 111208Z 35010KT 08/07 A2981 RMK A01 T00770065  RH  092%=      5-min Rain = 0
KHA3 111209Z 35008KT 08/07 A2981 RMK A01 T00770066  RH  093%=      5-min Rain = 0
KHA3 111210Z 34006KT 08/07 A2981 RMK A01 T00770067  RH  093%=      5-min Rain = 0
KHA3 111211Z 31003KT 08/07 A2981 RMK A01 T00770067  RH  093%=      5-min Rain = 0
KHA3 111212Z 24003KT 08/07 A2981 RMK A01 T00770066  RH  093%=      5-min Rain = 0
KHA3 111213Z 21005KT 08/07 A298 RMK A01 T00770066  RH  093%=      5-min Rain = 0
KHA3 111214Z 20007KT 08/07 A298 RMK A01 T00770066  RH  092%=      5-min Rain = 0
KHA3 111215Z 20009KT 08/07 A298 RMK A01 T00780066  RH  092%=      5-min Rain = 0
KHA3 111216Z 19009KT 08/06 A298 RMK A01 T00760064  RH  092%=      5-min Rain = 0
KHA3 111217Z 18009KT 08/06 A298 RMK A01 T00750063  RH  092%=      5-min Rain = 0
KHA3 111218Z 19008KT 07/06 A298 RMK A01 T00740063  RH  092%=      5-min Rain = 0
KHA3 111219Z 19007KT 07/06 A298 RMK A01 T00740063  RH  093%=      5-min Rain = 0
KHA3 111220Z 20006KT 07/06 A298 RMK A01 T00740064  RH  093%=      5-min Rain = 0
KHA3 111221Z 21005KT 07/06 A298 RMK A01 T00740063  RH  093%=      5-min Rain = 0
KHA3 111222Z 21003KT 07/06 A298 RMK A01 T00740063  RH  093%=      5-min Rain = 0
KHA3 111223Z 23002KT 07/06 A298 RMK A01 T00740063  RH  093%=      5-min Rain = 0
KHA3 111224Z 24001KT 07/06 A298 RMK A01 T00740064  RH  093%=      5-min Rain = 0
KHA3 111225Z 25001KT 07/06 A298 RMK A01 T00740063  RH  093%=      5-min Rain = 0
KHA3 111226Z 28001KT 07/06 A298 RMK A01 T00740063  RH  093%=      5-min Rain = 0
KHA3 111227Z 28001KT 07/06 A298 RMK A01 T00740063  RH  093%=      5-min Rain = 0
KHA3 111228Z 27002KT 07/06 A2981 RMK A01 T00730063  RH  093%=      5-min Rain = 0
KHA3 111229Z 27003KT 07/06 A2981 RMK A01 T00730063  RH  093%=      5-min Rain = 0
KHA3 111230Z 27003KT 07/06 A2981 RMK A01 T00730064  RH  094%=      5-min Rain = 0
KHA3 111231Z 25003KT 07/06 A2981 RMK A01 T00740064  RH  094%=      5-min Rain = 0
KHA3 111232Z 25003KT 07/06 A2981 RMK A01 T00740063  RH  093%=      5-min Rain = 0
KHA3 111233Z 24003KT 07/06 A298 RMK A01 T00730062  RH  092%=      5-min Rain = 0
KHA3 111234Z 24004KT 07/06 A298 RMK A01 T00730062  RH  093%=      5-min Rain = 0
KHA3 111235Z 24004KT 07/06 A298 RMK A01 T00730062  RH  093%=      5-min Rain = 0
KHA3 111236Z 23005KT 07/06 A298 RMK A01 T00730061  RH  092%=      5-min Rain = 0
KHA3 111237Z 23006KT 07/06 A2981 RMK A01 T00730062  RH  093%=      5-min Rain = 0
KHA3 111238Z 22007KT 07/06 A2981 RMK A01 T00740063  RH  092%=      5-min Rain = 0
KHA3 111239Z 21007KT 07/06 A298 RMK A01 T00730060  RH  092%=      5-min Rain = 0
KHA3 111240Z 21007KT 07/06 A298 RMK A01 T00710058  RH  091%=      5-min Rain = 0
KHA3 111241Z 20008KT 07/06 A298 RMK A01 T00700058  RH  092%=      5-min Rain = 0
KHA3 111242Z 20009KT 07/06 A298 RMK A01 T00680057  RH  092%=      5-min Rain = 0
KHA3 111243Z 20010KT 07/06 A298 RMK A01 T00670057  RH  093%=      5-min Rain = 0
KHA3 111244Z 20010KT 07/06 A298 RMK A01 T00670057  RH  094%=      5-min Rain = 0
KHA3 111245Z 20010KT 07/06 A298 RMK A01 T00670058  RH  094%=      5-min Rain = 0
KHA3 111246Z 20009KT 07/06 A298 RMK A01 T00670058  RH  094%=      5-min Rain = 0
KHA3 111247Z 20007KT 07/06 A298 RMK A01 T00670058  RH  094%=      5-min Rain = 0
KHA3 111248Z 21005KT 07/06 A298 RMK A01 T00670058  RH  094%=      5-min Rain = 0
KHA3 111249Z 23003KT 07/06 A298 RMK A01 T00670059  RH  094%=      5-min Rain = 0
KHA3 111250Z 27002KT 07/06 A298 RMK A01 T00680060  RH  095%=      5-min Rain = 0
KHA3 111251Z 28002KT 07/06 A298 RMK A01 T00680058  RH  094%=      5-min Rain = 0
KHA3 111252Z 28002KT 07/06 A298 RMK A01 T00660057  RH  094%=      5-min Rain = 0
KHA3 111253Z 25003KT 07/06 A298 RMK A01 T00660056  RH  094%=      5-min Rain = 0
KHA3 111254Z 24002KT 07/06 A298 RMK A01 T00660058  RH  095%=      5-min Rain = 0
KHA3 111255Z 22003KT 07/06 A298 RMK A01 T00670059  RH  095%=      5-min Rain = 0
KHA3 111256Z 21003KT 07/06 A298 RMK A01 T00670060  RH  095%=      5-min Rain = 0
KHA3 111257Z 21004KT 07/06 A298 RMK A01 T00670059  RH  095%=      5-min Rain = 0
KHA3 111258Z 21005KT 07/06 A298 RMK A01 T00670059  RH  095%=      5-min Rain = 0
KHA3 111259Z 21005KT 07/06 A298 RMK A01 T00680061  RH  095%=      5-min Rain = 0
KHA3 111300Z 21005KT 07/06 A298 RMK A01 T00680060  RH  095%=      5-min Rain = 0
KHA3 111301Z 21005KT 07/06 A298 RMK A01 T00680060  RH  094%=      5-min Rain = 0
KHA3 111302Z 21006KT 07/06 A298 RMK A01 T00680060  RH  094%=      5-min Rain = 0
KHA3 111303Z 21006KT 07/06 A298 RMK A01 T00680060  RH  095%=      5-min Rain = 0
KHA3 111304Z 21006KT 07/06 A298 RMK A01 T00680060  RH  095%=      5-min Rain = 0
KHA3 111305Z 21006KT 07/06 A298 RMK A01 T00670059  RH  095%=      5-min Rain = 0
KHA3 111306Z 21006KT 07/06 A298 RMK A01 T00670059  RH  095%=      5-min Rain = 0
KHA3 111307Z 21006KT 07/06 A298 RMK A01 T00670059  RH  095%=      5-min Rain = 0
KHA3 111308Z 22005KT 07/06 A298 RMK A01 T00670060  RH  095%=      5-min Rain = 0
KHA3 111309Z 22005KT 07/06 A298 RMK A01 T00670061  RH  095%=      5-min Rain = 0
KHA3 111310Z 23005KT 07/06 A298 RMK A01 T00670060  RH  095%=      5-min Rain = 0
KHA3 111311Z 23005KT 07/06 A298 RMK A01 T00670060  RH  095%=      5-min Rain = 0
KHA3 111312Z 24004KT 07/06 A298 RMK A01 T00670060  RH  095%=      5-min Rain = 0
KHA3 111313Z 25003KT 07/06 A298 RMK A01 T00680061  RH  096%=      5-min Rain = 0
KHA3 111314Z 25003KT 07/06 A298 RMK A01 T00670060  RH  095%=      5-min Rain = 0
KHA3 111315Z 26003KT 07/06 A298 RMK A01 T00660057  RH  094%=      5-min Rain = 0
KHA3 111316Z 29002KT 06/06 A298 RMK A01 T00640055  RH  094%=      5-min Rain = 0
KHA3 111317Z 30002KT 06/05 A298 RMK A01 T00620054  RH  094%=      5-min Rain = 0
KHA3 111318Z 31002KT 06/05 A298 RMK A01 T00610052  RH  094%=      5-min Rain = 0
KHA3 111319Z 30002KT 06/05 A298 RMK A01 T00600052  RH  095%=      5-min Rain = 0
KHA3 111320Z 26002KT 06/05 A298 RMK A01 T00590052  RH  095%=      5-min Rain = 0
KHA3 111321Z 26002KT 06/05 A298 RMK A01 T00590052  RH  096%=      5-min Rain = 0
KHA3 111322Z 25001KT 06/05 A2979 RMK A01 T00600054  RH  096%=      5-min Rain = 0
KHA3 111323Z 24002KT 06/06 A2979 RMK A01 T00610056  RH  097%=      5-min Rain = 0
KHA3 111324Z 24003KT 06/06 A2979 RMK A01 T00620057  RH  097%=      5-min Rain = 0
KHA3 111325Z 24003KT 06/06 A2979 RMK A01 T00620058  RH  097%=      5-min Rain = 0
KHA3 111326Z 23004KT 06/06 A2979 RMK A01 T00630058  RH  097%=      5-min Rain = 0
KHA3 111327Z 22004KT 06/06 A2979 RMK A01 T00630059  RH  097%=      5-min Rain = 0
KHA3 111328Z 21004KT 06/06 A2979 RMK A01 T00640059  RH  097%=      5-min Rain = 0
KHA3 111329Z 21004KT 06/06 A2979 RMK A01 T00640060  RH  097%=      5-min Rain = 0
KHA3 111330Z 20004KT 07/06 A2979 RMK A01 T00650060  RH  097%=      5-min Rain = 0
KHA3 111331Z 20005KT 06/06 A2979 RMK A01 T00630056  RH  096%=      5-min Rain = 0
KHA3 111332Z 19005KT 06/06 A2979 RMK A01 T00620056  RH  096%=      5-min Rain = 0
KHA3 111333Z 18005KT 06/06 A2979 RMK A01 T00620056  RH  096%=      5-min Rain = 0
KHA3 111334Z 18005KT 06/06 A2979 RMK A01 T00620057  RH  097%=      5-min Rain = 0
KHA3 111335Z 18005KT 06/06 A2979 RMK A01 T00620058  RH  097%=      5-min Rain = 0
KHA3 111336Z 18004KT 06/06 A2979 RMK A01 T00630058  RH  097%=      5-min Rain = 0
KHA3 111337Z 18004KT 06/06 A2979 RMK A01 T00630059  RH  097%=      5-min Rain = 0
KHA3 111338Z 17004KT 06/06 A2979 RMK A01 T00640059  RH  097%=      5-min Rain = 0
KHA3 111339Z 17004KT 06/06 A2979 RMK A01 T00640059  RH  097%=      5-min Rain = 0
KHA3 111340Z 17004KT 06/06 A2979 RMK A01 T00640059  RH  097%=      5-min Rain = 0
KHA3 111341Z 17004KT 06/06 A2979 RMK A01 T00640059  RH  097%=      5-min Rain = 0
KHA3 111342Z 17004KT 06/06 A2979 RMK A01 T00630058  RH  097%=      5-min Rain = 0
KHA3 111343Z 17004KT 06/06 A2979 RMK A01 T00630058  RH  097%=      5-min Rain = 0
KHA3 111344Z 17004KT 06/06 A2979 RMK A01 T00620057  RH  097%=      5-min Rain = 0
KHA3 111345Z 17003KT 06/06 A2979 RMK A01 T00620058  RH  097%=      5-min Rain = 0
KHA3 111346Z 18003KT 06/06 A2979 RMK A01 T00620058  RH  097%=      5-min Rain = 0
KHA3 111347Z 18004KT 06/06 A2979 RMK A01 T00630059  RH  097%=      5-min Rain = 0
KHA3 111348Z 19004KT 06/06 A2979 RMK A01 T00630059  RH  097%=      5-min Rain = 0
KHA3 111349Z 19005KT 06/06 A2979 RMK A01 T00630059  RH  097%=      5-min Rain = 0
KHA3 111350Z 19005KT 06/06 A2979 RMK A01 T00640060  RH  097%=      5-min Rain = 0
KHA3 111351Z 19006KT 06/06 A2979 RMK A01 T00640059  RH  097%=      5-min Rain = 0
KHA3 111352Z 19007KT 06/06 A2979 RMK A01 T00640059  RH  097%=      5-min Rain = 0
KHA3 111353Z 19008KT 06/06 A2979 RMK A01 T00630059  RH  097%=      5-min Rain = 0
KHA3 111354Z 18008KT 06/06 A2979 RMK A01 T00630059  RH  097%=      5-min Rain = 0
KHA3 111355Z 18008KT 06/06 A2979 RMK A01 T00630058  RH  097%=      5-min Rain = 0
KHA3 111356Z 19008KT 06/06 A2979 RMK A01 T00620058  RH  097%=      5-min Rain = 0
KHA3 111357Z 18009KT 06/06 A2979 RMK A01 T00630059  RH  097%=      5-min Rain = 0
KHA3 111358Z 18009KT 06/06 A2979 RMK A01 T00640061  RH  098%=      5-min Rain = 0
KHA3 111359Z 18009KT 07/06 A2979 RMK A01 T00650062  RH  098%=      5-min Rain = 0
KHA3 111400Z 19009KT 07/06 A2979 RMK A01 T00660062  RH  097%=      5-min Rain = 0
KHA3 111401Z 19008KT 07/06 A2979 RMK A01 T00660063  RH  097%=      5-min Rain = 0
KHA3 111402Z 19008KT 07/06 A2979 RMK A01 T00660062  RH  097%=      5-min Rain = 0
KHA3 111403Z 19007KT 07/06 A2979 RMK A01 T00660062  RH  097%=      5-min Rain = 0
KHA3 111404Z 19007KT 07/06 A2979 RMK A01 T00670062  RH  097%=      5-min Rain = 0
KHA3 111405Z 18008KT 07/06 A2979 RMK A01 T00670063  RH  097%=      5-min Rain = 0
KHA3 111406Z 18008KT 07/06 A2979 RMK A01 T00670063  RH  097%=      5-min Rain = 0
KHA3 111407Z 19008KT 07/06 A2979 RMK A01 T00670062  RH  097%=      5-min Rain = 0
KHA3 111408Z 19008KT 07/06 A2979 RMK A01 T00680063  RH  097%=      5-min Rain = 0
KHA3 111409Z 19008KT 07/06 A2979 RMK A01 T00680063  RH  097%=      5-min Rain = 0
KHA3 111410Z 19007KT 07/06 A2979 RMK A01 T00680063  RH  097%=      5-min Rain = 0
KHA3 111411Z 20007KT 07/06 A2979 RMK A01 T00680063  RH  097%=      5-min Rain = 0
KHA3 111412Z 20007KT 07/06 A2979 RMK A01 T00680063  RH  097%=      5-min Rain = 0
KHA3 111413Z 20007KT 07/06 A2979 RMK A01 T00680063  RH  097%=      5-min Rain = 0
KHA3 111414Z 19007KT 07/06 A2979 RMK A01 T00680063  RH  096%=      5-min Rain = 0
KHA3 111415Z 19007KT 07/06 A2979 RMK A01 T00680063  RH  096%=      5-min Rain = 0
KHA3 111416Z 19007KT 07/06 A2979 RMK A01 T00680063  RH  096%=      5-min Rain = 0
KHA3 111417Z 19008KT 07/06 A2979 RMK A01 T00690063  RH  096%=      5-min Rain = 0
KHA3 111418Z 19007KT 07/06 A2979 RMK A01 T00690063  RH  096%=      5-min Rain = 0
KHA3 111419Z 20006KT 07/06 A2979 RMK A01 T00690063  RH  096%=      5-min Rain = 0
KHA3 111420Z 20005KT 07/06 A2979 RMK A01 T00690063  RH  096%=      5-min Rain = 0
KHA3 111421Z 20006KT 07/06 A2979 RMK A01 T00690064  RH  096%=      5-min Rain = 0
KHA3 111422Z 20006KT 07/06 A2979 RMK A01 T00690064  RH  096%=      5-min Rain = 0
KHA3 111423Z 19006KT 07/06 A2979 RMK A01 T00690063  RH  096%=      5-min Rain = 0
KHA3 111424Z 19006KT 07/06 A2979 RMK A01 T00700064  RH  096%=      5-min Rain = 0
KHA3 111425Z 19006KT 07/06 A2979 RMK A01 T00700063  RH  096%=      5-min Rain = 0
KHA3 111426Z 19006KT 07/06 A2979 RMK A01 T00690063  RH  096%=      5-min Rain = 0
KHA3 111427Z 18006KT 07/06 A2979 RMK A01 T00690063  RH  096%=      5-min Rain = 0
KHA3 111428Z 19006KT 07/06 A2979 RMK A01 T00700064  RH  096%=      5-min Rain = 0
KHA3 111429Z 19005KT 07/06 A2979 RMK A01 T00700063  RH  096%=      5-min Rain = 0
KHA3 111430Z 19006KT 07/06 A2979 RMK A01 T00690063  RH  096%=      5-min Rain = 0
KHA3 111431Z 19006KT 07/06 A2979 RMK A01 T00700063  RH  096%=      5-min Rain = 0
KHA3 111432Z 20006KT 07/06 A2979 RMK A01 T00700063  RH  096%=      5-min Rain = 0
KHA3 111433Z 20006KT 07/06 A2979 RMK A01 T00700063  RH  096%=      5-min Rain = 0
KHA3 111434Z 21006KT 07/06 A2979 RMK A01 T00700064  RH  095%=      5-min Rain = 0
KHA3 111435Z 21006KT 07/06 A298 RMK A01 T00710064  RH  095%=      5-min Rain = 0
KHA3 111436Z 21006KT 07/06 A298 RMK A01 T00710064  RH  095%=      5-min Rain = 0
KHA3 111437Z 22006KT 07/06 A298 RMK A01 T00710063  RH  095%=      5-min Rain = 0
KHA3 111438Z 21005KT 07/06 A298 RMK A01 T00720064  RH  095%=      5-min Rain = 0
KHA3 111439Z 22005KT 07/06 A298 RMK A01 T00720064  RH  094%=      5-min Rain = 0
KHA3 111440Z 21004KT 07/06 A2979 RMK A01 T00720064  RH  094%=      5-min Rain = 0
KHA3 111441Z 22004KT 07/06 A298 RMK A01 T00730064  RH  094%=      5-min Rain = 0
KHA3 111442Z 21003KT 07/06 A298 RMK A01 T00730063  RH  094%=      5-min Rain = 0
KHA3 111443Z 21004KT 07/06 A298 RMK A01 T00730063  RH  094%=      5-min Rain = 0
KHA3 111444Z 21004KT 07/06 A298 RMK A01 T00730063  RH  094%=      5-min Rain = 0
KHA3 111445Z 21003KT 07/06 A298 RMK A01 T00740063  RH  093%=      5-min Rain = 0
KHA3 111446Z 21004KT 07/06 A2979 RMK A01 T00740063  RH  093%=      5-min Rain = 0
KHA3 111447Z 20004KT 07/06 A2979 RMK A01 T00740063  RH  093%=      5-min Rain = 0
KHA3 111448Z 20006KT 07/06 A2979 RMK A01 T00740063  RH  093%=      5-min Rain = 0
KHA3 111449Z 21007KT 07/06 A2979 RMK A01 T00740063  RH  093%=      5-min Rain = 0
KHA3 111450Z 20006KT 07/06 A2979 RMK A01 T00740063  RH  093%=      5-min Rain = 0
KHA3 111451Z 19007KT 07/06 A2979 RMK A01 T00740064  RH  093%=      5-min Rain = 0
KHA3 111452Z 20006KT 07/06 A2979 RMK A01 T00740063  RH  093%=      5-min Rain = 0
KHA3 111453Z 19007KT 07/06 A2979 RMK A01 T00740064  RH  093%=      5-min Rain = 0
KHA3 111454Z 20008KT 07/06 A2979 RMK A01 T00740064  RH  094%=      5-min Rain = 0
KHA3 111455Z 20007KT 07/06 A2979 RMK A01 T00730063  RH  094%=      5-min Rain = 0
KHA3 111456Z 19007KT 07/06 A2979 RMK A01 T00730064  RH  094%=      5-min Rain = 0
KHA3 111457Z 19006KT 07/06 A2979 RMK A01 T00730064  RH  094%=      5-min Rain = 0
KHA3 111458Z 20005KT 07/06 A2979 RMK A01 T00730064  RH  094%=      5-min Rain = 0
KHA3 111459Z 20005KT 07/06 A2979 RMK A01 T00730064  RH  094%=      5-min Rain = 0
KHA3 111500Z 20006KT 07/06 A2979 RMK A01 T00730064  RH  094%=      5-min Rain = 0
KHA3 111501Z 20005KT 07/06 A2979 RMK A01 T00730064  RH  094%=      5-min Rain = 0
KHA3 111502Z 20006KT 07/06 A2979 RMK A01 T00730064  RH  094%=      5-min Rain = 0
KHA3 111503Z 20007KT 07/06 A2979 RMK A01 T00730064  RH  094%=      5-min Rain = 0
KHA3 111504Z 20006KT 07/06 A2979 RMK A01 T00730063  RH  094%=      5-min Rain = 0
KHA3 111505Z 20007KT 07/06 A2979 RMK A01 T00730063  RH  094%=      5-min Rain = 0
KHA3 111506Z 19007KT 07/06 A2979 RMK A01 T00730063  RH  094%=      5-min Rain = 0
KHA3 111507Z 20008KT 07/06 A2979 RMK A01 T00730064  RH  094%=      5-min Rain = 0
KHA3 111508Z 20008KT 07/06 A2979 RMK A01 T00740064  RH  093%=      5-min Rain = 0
KHA3 111509Z 20008KT 07/06 A2979 RMK A01 T00740064  RH  093%=      5-min Rain = 0
KHA3 111510Z 20008KT 07/06 A2979 RMK A01 T00740064  RH  093%=      5-min Rain = 0
KHA3 111511Z 20008KT 07/06 A2979 RMK A01 T00740064  RH  093%=      5-min Rain = 0
KHA3 111512Z 20008KT 08/06 A2979 RMK A01 T00750064  RH  093%=      5-min Rain = 0
KHA3 111513Z 20008KT 08/06 A2979 RMK A01 T00750064  RH  093%=      5-min Rain = 0
KHA3 111514Z 21008KT 08/06 A2979 RMK A01 T00750064  RH  093%=      5-min Rain = 0
KHA3 111515Z 21007KT 08/06 A2979 RMK A01 T00750064  RH  093%=      5-min Rain = 0
KHA3 111516Z 21007KT 08/07 A2979 RMK A01 T00760065  RH  093%=      5-min Rain = 0
KHA3 111517Z 20007KT 08/07 A2979 RMK A01 T00760065  RH  093%=      5-min Rain = 0
KHA3 111518Z 20008KT 08/07 A2979 RMK A01 T00760065  RH  093%=      5-min Rain = 0
KHA3 111519Z 20008KT 08/07 A2979 RMK A01 T00760065  RH  093%=      5-min Rain = 0
KHA3 111520Z 19007KT 08/07 A2979 RMK A01 T00760065  RH  092%=      5-min Rain = 0
KHA3 111521Z 19007KT 08/07 A2979 RMK A01 T00760065  RH  092%=      5-min Rain = 0
KHA3 111522Z 19008KT 08/07 A2979 RMK A01 T00770066  RH  093%=      5-min Rain = 0
KHA3 111523Z 19008KT 08/07 A2979 RMK A01 T00770066  RH  092%=      5-min Rain = 0
KHA3 111524Z 20008KT 08/07 A2979 RMK A01 T00780066  RH  092%=      5-min Rain = 0
KHA3 111525Z 20008KT 08/07 A2979 RMK A01 T00780066  RH  092%=      5-min Rain = 0
KHA3 111526Z 20009KT 08/07 A2979 RMK A01 T00780066  RH  092%=      5-min Rain = 0
KHA3 111527Z 20010KT 08/07 A2979 RMK A01 T00780065  RH  092%=      5-min Rain = 0
KHA3 111528Z 20008KT 08/07 A2979 RMK A01 T00780065  RH  091%=      5-min Rain = 0
KHA3 111529Z 20010KT 08/07 A2979 RMK A01 T00780065  RH  091%=      5-min Rain = 0
KHA3 111530Z 19010KT 08/07 A2979 RMK A01 T00790066  RH  092%=      5-min Rain = 0
KHA3 111531Z 20009KT 08/07 A2979 RMK A01 T00790066  RH  092%=      5-min Rain = 0
KHA3 111532Z 20011KT 08/07 A2979 RMK A01 T00800067  RH  092%=      5-min Rain = 0
KHA3 111533Z 20010KT 08/07 A298 RMK A01 T00790067  RH  092%=      5-min Rain = 0
KHA3 111534Z 21010KT 08/07 A298 RMK A01 T00800067  RH  092%=      5-min Rain = 0
KHA3 111535Z 20009KT 08/07 A298 RMK A01 T00800066  RH  091%=      5-min Rain = 0
KHA3 111536Z 20010KT 08/07 A298 RMK A01 T00800066  RH  091%=      5-min Rain = 0
KHA3 111537Z 20009KT 08/07 A298 RMK A01 T00800066  RH  091%=      5-min Rain = 0
KHA3 111538Z 21010KT 08/07 A298 RMK A01 T00800066  RH  091%=      5-min Rain = 0
KHA3 111539Z 20009KT 08/07 A298 RMK A01 T00800066  RH  091%=      5-min Rain = 0
KHA3 111540Z 20010KT 08/07 A298 RMK A01 T00800066  RH  091%=      5-min Rain = 0
KHA3 111541Z 20008KT 08/07 A298 RMK A01 T00810066  RH  091%=      5-min Rain = 0
KHA3 111542Z 20009KT 08/07 A298 RMK A01 T00810066  RH  091%=      5-min Rain = 0
KHA3 111543Z 20009KT 08/07 A298 RMK A01 T00810066  RH  090%=      5-min Rain = 0
KHA3 111544Z 21010KT 08/07 A298 RMK A01 T00810066  RH  091%=      5-min Rain = 0
KHA3 111545Z 21009KT 08/07 A298 RMK A01 T00810066  RH  090%=      5-min Rain = 0
KHA3 111546Z 21009KT 08/07 A298 RMK A01 T00810066  RH  090%=      5-min Rain = 0
KHA3 111547Z 21010KT 08/07 A298 RMK A01 T00810065  RH  090%=      5-min Rain = 0
KHA3 111548Z 21011KT 08/07 A298 RMK A01 T00820066  RH  089%=      5-min Rain = 0
KHA3 111549Z 21011KT 08/07 A298 RMK A01 T00820065  RH  089%=      5-min Rain = 0
KHA3 111550Z 21010KT 08/07 A298 RMK A01 T00830066  RH  089%=      5-min Rain = 0
KHA3 111551Z 21011KT 08/07 A298 RMK A01 T00830066  RH  089%=      5-min Rain = 0
KHA3 111552Z 22010KT 08/07 A298 RMK A01 T00840065  RH  088%=      5-min Rain = 0
KHA3 111553Z 22010KT 08/07 A298 RMK A01 T00840065  RH  088%=      5-min Rain = 0
KHA3 111554Z 21010KT 09/07 A298 RMK A01 T00850066  RH  088%=      5-min Rain = 0
KHA3 111555Z 22011KT 09/07 A298 RMK A01 T00850065  RH  088%=      5-min Rain = 0
KHA3 111556Z 22012KT 09/07 A298 RMK A01 T00850065  RH  087%=      5-min Rain = 0
KHA3 111557Z 22011KT 09/06 A298 RMK A01 T00850064  RH  087%=      5-min Rain = 0
KHA3 111558Z 21011KT 09/07 A298 RMK A01 T00860065  RH  087%=      5-min Rain = 0
KHA3 111559Z 22011KT 09/07 A298 RMK A01 T00860065  RH  087%=      5-min Rain = 0
KHA3 111600Z 21011KT 09/07 A298 RMK A01 T00860065  RH  087%=      5-min Rain = 0
KHA3 111601Z 21010KT 09/07 A298 RMK A01 T00860065  RH  087%=      5-min Rain = 0
KHA3 111602Z 21012KT 09/07 A298 RMK A01 T00860066  RH  087%=      5-min Rain = 0
KHA3 111603Z 21011KT 09/07 A298 RMK A01 T00860065  RH  087%=      5-min Rain = 0
KHA3 111604Z 22010KT 09/07 A298 RMK A01 T00860066  RH  087%=      5-min Rain = 0
KHA3 111605Z 21011KT 09/07 A298 RMK A01 T00870066  RH  087%=      5-min Rain = 0
KHA3 111606Z 21012KT 09/07 A298 RMK A01 T00870066  RH  087%=      5-min Rain = 0
KHA3 111607Z 21012KT 09/07 A298 RMK A01 T00870066  RH  087%=      5-min Rain = 0
KHA3 111608Z 21012KT 09/07 A298 RMK A01 T00870066  RH  086%=      5-min Rain = 0
KHA3 111609Z 21012KT 09/07 A298 RMK A01 T00870066  RH  086%=      5-min Rain = 0
KHA3 111610Z 21013KT 09/07 A298 RMK A01 T00880066  RH  086%=      5-min Rain = 0
KHA3 111611Z 21012KT 09/07 A298 RMK A01 T00880065  RH  086%=      5-min Rain = 0
KHA3 111612Z 21014KT 09/07 A2979 RMK A01 T00890065  RH  085%=      5-min Rain = 0
KHA3 111613Z 22013KT 09/07 A2979 RMK A01 T00890065  RH  085%=      5-min Rain = 0
KHA3 111614Z 22013KT 09/06 A2979 RMK A01 T00900064  RH  084%=      5-min Rain = 0
KHA3 111615Z 21013KT 09/06 A2979 RMK A01 T00910064  RH  083%=      5-min Rain = 0
KHA3 111616Z 22012KT 09/06 A2979 RMK A01 T00920064  RH  083%=      5-min Rain = 0
KHA3 111617Z 22012KT 09/06 A2979 RMK A01 T00920064  RH  083%=      5-min Rain = 0
KHA3 111618Z 21013KT 09/07 A2979 RMK A01 T00930065  RH  083%=      5-min Rain = 0
KHA3 111619Z 21012KT 09/07 A2979 RMK A01 T00940065  RH  083%=      5-min Rain = 0
KHA3 111620Z 21012KT 09/07 A2979 RMK A01 T00930065  RH  082%=      5-min Rain = 0
KHA3 111621Z 21012KT 09/07 A2979 RMK A01 T00940065  RH  082%=      5-min Rain = 0
KHA3 111622Z 22014KT 09/07 A2979 RMK A01 T00940065  RH  082%=      5-min Rain = 0
KHA3 111623Z 22012KT 09/06 A2979 RMK A01 T00940064  RH  081%=      5-min Rain = 0
KHA3 111624Z 22012KT 09/06 A298 RMK A01 T00940064  RH  081%=      5-min Rain = 0
KHA3 111625Z 22013KT 09/06 A298 RMK A01 T00940063  RH  081%=      5-min Rain = 0
KHA3 111626Z 22013KT 10/06 A298 RMK A01 T00950064  RH  081%=      5-min Rain = 0
KHA3 111627Z 22011KT 10/06 A298 RMK A01 T00950064  RH  081%=      5-min Rain = 0
KHA3 111628Z 22012KT 10/07 A298 RMK A01 T00950065  RH  082%=      5-min Rain = 0
KHA3 111629Z 22010KT 10/07 A298 RMK A01 T00960066  RH  082%=      5-min Rain = 0
KHA3 111630Z 22011KT 10/07 A298 RMK A01 T00950066  RH  082%=      5-min Rain = 0
KHA3 111631Z 22013KT 10/07 A298 RMK A01 T00950065  RH  081%=      5-min Rain = 0
KHA3 111632Z 23011KT 10/07 A298 RMK A01 T00950065  RH  081%=      5-min Rain = 0
KHA3 111633Z 22011KT 10/06 A298 RMK A01 T00950064  RH  081%=      5-min Rain = 0
KHA3 111634Z 22009KT 10/07 A298 RMK A01 T00950065  RH  081%=      5-min Rain = 0
KHA3 111635Z 22011KT 10/07 A298 RMK A01 T00950065  RH  082%=      5-min Rain = 0
KHA3 111636Z 22011KT 10/07 A298 RMK A01 T00950065  RH  081%=      5-min Rain = 0
KHA3 111637Z 22011KT 10/07 A298 RMK A01 T00960065  RH  081%=      5-min Rain = 0
KHA3 111638Z 22011KT 10/07 A298 RMK A01 T00960065  RH  081%=      5-min Rain = 0
KHA3 111639Z 22010KT 10/07 A298 RMK A01 T00970065  RH  081%=      5-min Rain = 0
KHA3 111640Z 23010KT 10/07 A298 RMK A01 T00970065  RH  081%=      5-min Rain = 0
KHA3 111641Z 23010KT 10/07 A298 RMK A01 T00970065  RH  081%=      5-min Rain = 0
KHA3 111642Z 23011KT 10/06 A298 RMK A01 T00970064  RH  080%=      5-min Rain = 0
KHA3 111643Z 23011KT 10/06 A298 RMK A01 T00970064  RH  080%=      5-min Rain = 0
KHA3 111644Z 23009KT 10/06 A298 RMK A01 T00980064  RH  080%=      5-min Rain = 0
KHA3 111645Z 23008KT 10/07 A2979 RMK A01 T00980065  RH  080%=      5-min Rain = 0
KHA3 111646Z 23010KT 10/07 A298 RMK A01 T00980065  RH  080%=      5-min Rain = 0
KHA3 111647Z 22010KT 10/07 A298 RMK A01 T00990065  RH  080%=      5-min Rain = 0
KHA3 111648Z 23009KT 10/07 A2979 RMK A01 T00990065  RH  080%=      5-min Rain = 0
KHA3 111649Z 23009KT 10/07 A2979 RMK A01 T00990066  RH  080%=      5-min Rain = 0
KHA3 111650Z 23007KT 10/07 A2979 RMK A01 T01000066  RH  080%=      5-min Rain = 0
KHA3 111651Z 22009KT 10/07 A298 RMK A01 T00990066  RH  080%=      5-min Rain = 0
KHA3 111652Z 22010KT 10/07 A298 RMK A01 T01000067  RH  080%=      5-min Rain = 0
KHA3 111653Z 22010KT 10/07 A298 RMK A01 T01010067  RH  080%=      5-min Rain = 0
KHA3 111654Z 23011KT 10/07 A298 RMK A01 T01010067  RH  079%=      5-min Rain = 0
KHA3 111655Z 23011KT 10/07 A2979 RMK A01 T01010066  RH  079%=      5-min Rain = 0
KHA3 111656Z 23011KT 10/07 A2979 RMK A01 T01020066  RH  078%=      5-min Rain = 0
KHA3 111657Z 22010KT 10/07 A2979 RMK A01 T01030067  RH  078%=      5-min Rain = 0
KHA3 111658Z 23010KT 10/07 A2979 RMK A01 T01030066  RH  078%=      5-min Rain = 0
KHA3 111659Z 22011KT 10/07 A2979 RMK A01 T01040066  RH  077%=      5-min Rain = 0
KHA3 111700Z 22012KT 10/07 A2979 RMK A01 T01040065  RH  077%=      5-min Rain = 0
KHA3 111701Z 23011KT 10/06 A2979 RMK A01 T01040064  RH  076%=      5-min Rain = 0
KHA3 111702Z 22009KT 10/07 A2979 RMK A01 T01040065  RH  077%=      5-min Rain = 0
KHA3 111703Z 22009KT 11/07 A2978 RMK A01 T01050066  RH  077%=      5-min Rain = 0
KHA3 111704Z 22010KT 10/07 A2978 RMK A01 T01040065  RH  077%=      5-min Rain = 0
KHA3 111705Z 22008KT 11/07 A2978 RMK A01 T01050065  RH  077%=      5-min Rain = 0
KHA3 111706Z 22009KT 11/07 A2978 RMK A01 T01050066  RH  077%=      5-min Rain = 0
KHA3 111707Z 21008KT 11/07 A2978 RMK A01 T01050066  RH  077%=      5-min Rain = 0
KHA3 111708Z 22008KT 11/07 A2978 RMK A01 T01060067  RH  077%=      5-min Rain = 0
KHA3 111709Z 21007KT 11/07 A2978 RMK A01 T01060067  RH  077%=      5-min Rain = 0
KHA3 111710Z 21007KT 11/07 A2978 RMK A01 T01060068  RH  077%=      5-min Rain = 0
KHA3 111711Z 22007KT 11/07 A2977 RMK A01 T01070068  RH  077%=      5-min Rain = 0
KHA3 111712Z 22006KT 11/07 A2977 RMK A01 T01080067  RH  076%=      5-min Rain = 0
KHA3 111713Z 22005KT 11/07 A2977 RMK A01 T01080068  RH  076%=      5-min Rain = 0
KHA3 111714Z 22005KT 11/07 A2977 RMK A01 T01090069  RH  076%=      5-min Rain = 0
KHA3 111715Z 23006KT 11/07 A2977 RMK A01 T01090068  RH  076%=      5-min Rain = 0
KHA3 111716Z 23008KT 11/07 A2977 RMK A01 T01100068  RH  075%=      5-min Rain = 0
KHA3 111717Z 23008KT 11/07 A2977 RMK A01 T01110067  RH  075%=      5-min Rain = 0
KHA3 111718Z 23006KT 11/07 A2977 RMK A01 T01120067  RH  074%=      5-min Rain = 0
KHA3 111719Z 23009KT 11/07 A2978 RMK A01 T01120068  RH  074%=      5-min Rain = 0
KHA3 111720Z 23010KT 11/07 A2978 RMK A01 T01140068  RH  074%=      5-min Rain = 0
KHA3 111721Z 23009KT 11/07 A2978 RMK A01 T01140067  RH  073%=      5-min Rain = 0
KHA3 111722Z 23010KT 12/07 A2978 RMK A01 T01150068  RH  073%=      5-min Rain = 0
KHA3 111723Z 23010KT 12/07 A2978 RMK A01 T01150068  RH  073%=      5-min Rain = 0
KHA3 111724Z 23010KT 12/07 A2978 RMK A01 T01160068  RH  072%=      5-min Rain = 0
KHA3 111725Z 24011KT 12/07 A2978 RMK A01 T01170066  RH  071%=      5-min Rain = 0
KHA3 111726Z 23012KT 12/07 A2978 RMK A01 T01180066  RH  070%=      5-min Rain = 0
KHA3 111727Z 23010KT 12/07 A2978 RMK A01 T01190067  RH  070%=      5-min Rain = 0
KHA3 111728Z 24012KT 12/07 A2978 RMK A01 T01190066  RH  070%=      5-min Rain = 0
KHA3 111729Z 24013KT 12/07 A2978 RMK A01 T01200065  RH  069%=      5-min Rain = 0
KHA3 111730Z 24012KT 12/07 A2978 RMK A01 T01200065  RH  069%=      5-min Rain = 0
KHA3 111731Z 24013KT 12/07 A2978 RMK A01 T01210066  RH  069%=      5-min Rain = 0
KHA3 111732Z 25013KT 12/06 A2978 RMK A01 T01210064  RH  068%=      5-min Rain = 0
KHA3 111733Z 24013KT 12/06 A2978 RMK A01 T01220064  RH  068%=      5-min Rain = 0
KHA3 111734Z 24010KT 12/06 A2977 RMK A01 T01230064  RH  067%=      5-min Rain = 0
KHA3 111735Z 23011KT 12/07 A2977 RMK A01 T01220065  RH  068%=      5-min Rain = 0
KHA3 111736Z 23011KT 12/06 A2977 RMK A01 T01220064  RH  067%=      5-min Rain = 0
KHA3 111737Z 24012KT 12/06 A2977 RMK A01 T01220063  RH  067%=      5-min Rain = 0
KHA3 111738Z 23009KT 12/06 A2977 RMK A01 T01220064  RH  068%=      5-min Rain = 0
KHA3 111739Z 23011KT 12/07 A2977 RMK A01 T01230066  RH  068%=      5-min Rain = 0
KHA3 111740Z 24012KT 12/06 A2977 RMK A01 T01230064  RH  068%=      5-min Rain = 0
KHA3 111741Z 23011KT 12/06 A2977 RMK A01 T01230064  RH  067%=      5-min Rain = 0
KHA3 111742Z 24011KT 12/06 A2977 RMK A01 T01230064  RH  067%=      5-min Rain = 0
KHA3 111743Z 23013KT 12/06 A2977 RMK A01 T01230063  RH  067%=      5-min Rain = 0
KHA3 111744Z 23011KT 12/06 A2977 RMK A01 T01230064  RH  067%=      5-min Rain = 0
KHA3 111745Z 22009KT 12/07 A2977 RMK A01 T01230065  RH  068%=      5-min Rain = 0
KHA3 111746Z 23012KT 12/07 A2977 RMK A01 T01230066  RH  068%=      5-min Rain = 0
KHA3 111747Z 23013KT 12/07 A2977 RMK A01 T01230065  RH  068%=      5-min Rain = 0
KHA3 111748Z 23012KT 12/07 A2977 RMK A01 T01230065  RH  068%=      5-min Rain = 0
KHA3 111749Z 23011KT 12/07 A2977 RMK A01 T01230065  RH  068%=      5-min Rain = 0
KHA3 111750Z 23011KT 12/07 A2977 RMK A01 T01230066  RH  068%=      5-min Rain = 0
KHA3 111751Z 23012KT 12/07 A2976 RMK A01 T01230066  RH  068%=      5-min Rain = 0
KHA3 111752Z 22012KT 12/07 A2976 RMK A01 T01230065  RH  068%=      5-min Rain = 0
KHA3 111753Z 23010KT 12/07 A2976 RMK A01 T01230066  RH  068%=      5-min Rain = 0
KHA3 111754Z 22011KT 12/07 A2976 RMK A01 T01230066  RH  068%=      5-min Rain = 0
KHA3 111755Z 22012KT 12/07 A2976 RMK A01 T01230066  RH  068%=      5-min Rain = 0
KHA3 111756Z 22012KT 12/07 A2976 RMK A01 T01230065  RH  068%=      5-min Rain = 0
KHA3 111757Z 23011KT 12/07 A2976 RMK A01 T01230066  RH  068%=      5-min Rain = 0
KHA3 111758Z 23013KT 12/07 A2976 RMK A01 T01230066  RH  068%=      5-min Rain = 0
KHA3 111759Z 23012KT 12/07 A2976 RMK A01 T01230066  RH  068%=      5-min Rain = 0
KHA3 111800Z 23012KT 12/07 A2975 RMK A01 T01230065  RH  068%=      5-min Rain = 0
KHA3 111801Z 23012KT 12/07 A2975 RMK A01 T01230066  RH  068%=      5-min Rain = 0
KHA3 111802Z 22014KT 12/07 A2975 RMK A01 T01230066  RH  068%=      5-min Rain = 0
KHA3 111803Z 22012KT 12/07 A2975 RMK A01 T01230066  RH  068%=      5-min Rain = 0
KHA3 111804Z 23012KT 12/07 A2975 RMK A01 T01230066  RH  068%=      5-min Rain = 0
KHA3 111805Z 22015KT 12/07 A2975 RMK A01 T01230066  RH  068%=      5-min Rain = 0
KHA3 111806Z 22015KT 12/07 A2975 RMK A01 T01230066  RH  068%=      5-min Rain = 0
KHA3 111807Z 22014KT 12/07 A2975 RMK A01 T01230066  RH  068%=      5-min Rain = 0
KHA3 111808Z 23015KT 12/07 A2975 RMK A01 T01220066  RH  068%=      5-min Rain = 0
KHA3 111809Z 23014KT 12/07 A2975 RMK A01 T01220066  RH  069%=      5-min Rain = 0
KHA3 111810Z 23012KT 12/07 A2975 RMK A01 T01220067  RH  069%=      5-min Rain = 0
KHA3 111811Z 21013KT 12/07 A2974 RMK A01 T01220067  RH  069%=      5-min Rain = 0
KHA3 111812Z 22011KT 12/07 A2974 RMK A01 T01220068  RH  069%=      5-min Rain = 0
KHA3 111813Z 21010KT 12/07 A2974 RMK A01 T01220068  RH  069%=      5-min Rain = 0
KHA3 111814Z 21012KT 12/07 A2974 RMK A01 T01220068  RH  070%=      5-min Rain = 0
KHA3 111815Z 21010KT 12/07 A2974 RMK A01 T01220069  RH  070%=      5-min Rain = 0
KHA3 111816Z 21012KT 12/07 A2974 RMK A01 T01220069  RH  070%=      5-min Rain = 0
KHA3 111817Z 20012KT 12/07 A2974 RMK A01 T01220069  RH  070%=      5-min Rain = 0
KHA3 111818Z 20011KT 12/07 A2973 RMK A01 T01220070  RH  070%=      5-min Rain = 0
KHA3 111819Z 21012KT 12/07 A2973 RMK A01 T01220070  RH  070%=      5-min Rain = 0
KHA3 111820Z 21011KT 12/07 A2973 RMK A01 T01220070  RH  070%=      5-min Rain = 0
KHA3 111821Z 21011KT 12/07 A2973 RMK A01 T01220070  RH  071%=      5-min Rain = 0
KHA3 111822Z 20009KT 12/07 A2973 RMK A01 T01220071  RH  071%=      5-min Rain = 0
KHA3 111823Z 20011KT 12/07 A2973 RMK A01 T01220072  RH  071%=      5-min Rain = 0
KHA3 111824Z 20011KT 12/07 A2973 RMK A01 T01220072  RH  071%=      5-min Rain = 0
KHA3 111825Z 20012KT 12/07 A2973 RMK A01 T01220071  RH  071%=      5-min Rain = 0
KHA3 111826Z 20010KT 12/07 A2973 RMK A01 T01220072  RH  071%=      5-min Rain = 0
KHA3 111827Z 20009KT 12/07 A2973 RMK A01 T01220073  RH  072%=      5-min Rain = 0
KHA3 111828Z 20011KT 12/07 A2973 RMK A01 T01220073  RH  072%=      5-min Rain = 0
KHA3 111829Z 20011KT 12/07 A2973 RMK A01 T01220073  RH  072%=      5-min Rain = 0
KHA3 111830Z 21012KT 12/07 A2973 RMK A01 T01220072  RH  072%=      5-min Rain = 0
KHA3 111831Z 20011KT 12/07 A2973 RMK A01 T01210072  RH  072%=      5-min Rain = 0
KHA3 111832Z 20010KT 12/07 A2973 RMK A01 T01210072  RH  072%=      5-min Rain = 0
KHA3 111833Z 20010KT 12/07 A2973 RMK A01 T01200073  RH  073%=      5-min Rain = 0
KHA3 111834Z 21009KT 12/07 A2973 RMK A01 T01200073  RH  073%=      5-min Rain = 0
KHA3 111835Z 20008KT 12/07 A2973 RMK A01 T01210073  RH  073%=      5-min Rain = 0
KHA3 111836Z 20010KT 12/07 A2973 RMK A01 T01210073  RH  073%=      5-min Rain = 0
KHA3 111837Z 20008KT 12/07 A2972 RMK A01 T01200074  RH  073%=      5-min Rain = 0
KHA3 111838Z 20010KT 12/08 A2972 RMK A01 T01210075  RH  073%=      5-min Rain = 0
KHA3 111839Z 19009KT 12/07 A2972 RMK A01 T01200074  RH  073%=      5-min Rain = 0
KHA3 111840Z 19009KT 12/07 A2972 RMK A01 T01200074  RH  074%=      5-min Rain = 0
KHA3 111841Z 20010KT 12/08 A2972 RMK A01 T01200075  RH  074%=      5-min Rain = 0
KHA3 111842Z 20010KT 12/08 A2972 RMK A01 T01200075  RH  074%=      5-min Rain = 0
KHA3 111843Z 20009KT 12/08 A2972 RMK A01 T01200076  RH  074%=      5-min Rain = 0
KHA3 111844Z 19009KT 12/08 A2972 RMK A01 T01200076  RH  074%=      5-min Rain = 0
KHA3 111845Z 19009KT 12/08 A2972 RMK A01 T01200076  RH  074%=      5-min Rain = 0
KHA3 111846Z 19010KT 12/08 A2972 RMK A01 T01200075  RH  074%=      5-min Rain = 0
KHA3 111847Z 19009KT 12/08 A2972 RMK A01 T01210076  RH  074%=      5-min Rain = 0
KHA3 111848Z 19009KT 12/08 A2972 RMK A01 T01210076  RH  074%=      5-min Rain = 0
KHA3 111849Z 19008KT 12/08 A2971 RMK A01 T01200076  RH  074%=      5-min Rain = 0
KHA3 111850Z 20008KT 12/08 A2972 RMK A01 T01210077  RH  074%=      5-min Rain = 0
KHA3 111851Z 20008KT 12/08 A2972 RMK A01 T01210077  RH  074%=      5-min Rain = 0
KHA3 111852Z 20008KT 12/08 A2971 RMK A01 T01220077  RH  074%=      5-min Rain = 0
KHA3 111853Z 20007KT 12/08 A2971 RMK A01 T01220078  RH  074%=      5-min Rain = 0
KHA3 111854Z 20007KT 12/08 A2971 RMK A01 T01230079  RH  074%=      5-min Rain = 0
KHA3 111855Z 20007KT 12/08 A2971 RMK A01 T01240079  RH  074%=      5-min Rain = 0
KHA3 111856Z 20008KT 13/08 A2971 RMK A01 T01250079  RH  074%=      5-min Rain = 0
KHA3 111857Z 20008KT 13/08 A2971 RMK A01 T01250079  RH  073%=      5-min Rain = 0
KHA3 111858Z 19009KT 13/08 A2971 RMK A01 T01260079  RH  073%=      5-min Rain = 0
KHA3 111859Z 20008KT 13/08 A2971 RMK A01 T01260079  RH  073%=      5-min Rain = 0
KHA3 111900Z 20007KT 13/08 A2971 RMK A01 T01270079  RH  073%=      5-min Rain = 0
KHA3 111901Z 20007KT 13/08 A2971 RMK A01 T01270081  RH  073%=      5-min Rain = 0
KHA3 111902Z 19009KT 13/08 A2971 RMK A01 T01280081  RH  073%=      5-min Rain = 0
KHA3 111903Z 20009KT 13/08 A297 RMK A01 T01280080  RH  072%=      5-min Rain = 0
KHA3 111904Z 21009KT 13/08 A297 RMK A01 T01280080  RH  072%=      5-min Rain = 0
KHA3 111905Z 20008KT 13/08 A297 RMK A01 T01280080  RH  072%=      5-min Rain = 0
KHA3 111906Z 20008KT 13/08 A297 RMK A01 T01280080  RH  073%=      5-min Rain = 0
KHA3 111907Z 21009KT 13/08 A297 RMK A01 T01290081  RH  073%=      5-min Rain = 0
KHA3 111908Z 20009KT 13/08 A297 RMK A01 T01290081  RH  072%=      5-min Rain = 0
KHA3 111909Z 20008KT 13/08 A297 RMK A01 T01290081  RH  072%=      5-min Rain = 0
KHA3 111910Z 19009KT 13/08 A297 RMK A01 T01300082  RH  073%=      5-min Rain = 0
KHA3 111911Z 20009KT 13/08 A297 RMK A01 T01300081  RH  072%=      5-min Rain = 0
KHA3 111912Z 21009KT 13/08 A297 RMK A01 T01310082  RH  072%=      5-min Rain = 0
KHA3 111913Z 21009KT 13/08 A297 RMK A01 T01320083  RH  072%=      5-min Rain = 0
KHA3 111914Z 20010KT 13/08 A297 RMK A01 T01320083  RH  072%=      5-min Rain = 0
KHA3 111915Z 20009KT 13/08 A2969 RMK A01 T01330083  RH  072%=      5-min Rain = 0
KHA3 111916Z 20009KT 13/08 A2969 RMK A01 T01330084  RH  072%=      5-min Rain = 0
KHA3 111917Z 20010KT 13/08 A2969 RMK A01 T01340083  RH  071%=      5-min Rain = 0
KHA3 111918Z 21011KT 13/08 A2969 RMK A01 T01340083  RH  071%=      5-min Rain = 0
KHA3 111919Z 22009KT 14/08 A2969 RMK A01 T01350084  RH  071%=      5-min Rain = 0
KHA3 111920Z 22009KT 14/08 A2969 RMK A01 T01350084  RH  071%=      5-min Rain = 0
KHA3 111921Z 21010KT 14/08 A2969 RMK A01 T01350084  RH  071%=      5-min Rain = 0
KHA3 111922Z 22009KT 14/08 A2969 RMK A01 T01360084  RH  071%=      5-min Rain = 0
KHA3 111923Z 21008KT 14/08 A2969 RMK A01 T01360084  RH  071%=      5-min Rain = 0
KHA3 111924Z 22009KT 14/09 A2969 RMK A01 T01360085  RH  071%=      5-min Rain = 0
KHA3 111925Z 22009KT 14/08 A2969 RMK A01 T01370084  RH  071%=      5-min Rain = 0
KHA3 111926Z 22009KT 14/09 A2969 RMK A01 T01370085  RH  071%=      5-min Rain = 0
KHA3 111927Z 21008KT 14/09 A2968 RMK A01 T01370085  RH  071%=      5-min Rain = 0
KHA3 111928Z 21007KT 14/09 A2968 RMK A01 T01380086  RH  071%=      5-min Rain = 0
KHA3 111929Z 21008KT 14/09 A2968 RMK A01 T01380086  RH  070%=      5-min Rain = 0
KHA3 111930Z 22008KT 14/09 A2968 RMK A01 T01390086  RH  070%=      5-min Rain = 0
KHA3 111931Z 22008KT 14/09 A2968 RMK A01 T01390086  RH  071%=      5-min Rain = 0
KHA3 111932Z 22008KT 14/09 A2968 RMK A01 T01390087  RH  071%=      5-min Rain = 0
KHA3 111933Z 22009KT 14/09 A2968 RMK A01 T01400087  RH  071%=      5-min Rain = 0
KHA3 111934Z 22008KT 14/09 A2968 RMK A01 T01400087  RH  070%=      5-min Rain = 0
KHA3 111935Z 22010KT 14/09 A2968 RMK A01 T01410087  RH  070%=      5-min Rain = 0
KHA3 111936Z 22012KT 14/09 A2967 RMK A01 T01410086  RH  069%=      5-min Rain = 0
KHA3 111937Z 21010KT 14/09 A2967 RMK A01 T01420087  RH  069%=      5-min Rain = 0
KHA3 111938Z 21009KT 14/09 A2967 RMK A01 T01430088  RH  070%=      5-min Rain = 0
KHA3 111939Z 21013G18KT 14/09 A2967 RMK A01 T01430088  RH  069%=      5-min Rain = 0
KHA3 111940Z 21015KT 14/09 A2967 RMK A01 T01430087  RH  069%=      5-min Rain = 0
KHA3 111941Z 21014KT 14/09 A2967 RMK A01 T01430087  RH  069%=      5-min Rain = 0
KHA3 111942Z 21014KT 14/09 A2967 RMK A01 T01430087  RH  069%=      5-min Rain = 0
KHA3 111943Z 21014KT 14/09 A2967 RMK A01 T01430088  RH  069%=      5-min Rain = 0
KHA3 111944Z 21014KT 14/09 A2967 RMK A01 T01430088  RH  069%=      5-min Rain = 0
KHA3 111945Z 21016KT 14/09 A2967 RMK A01 T01430088  RH  069%=      5-min Rain = 0
KHA3 111946Z 22015G20KT 14/09 A2967 RMK A01 T01430089  RH  070%=      5-min Rain = 0
KHA3 111947Z 21017KT 14/09 A2967 RMK A01 T01430088  RH  070%=      5-min Rain = 0
KHA3 111948Z 21013KT 14/09 A2967 RMK A01 T01430089  RH  070%=      5-min Rain = 0
KHA3 111949Z 21017KT 14/09 A2966 RMK A01 T01430090  RH  070%=      5-min Rain = 0
KHA3 111950Z 21016KT 14/09 A2966 RMK A01 T01430089  RH  070%=      5-min Rain = 0
KHA3 111951Z 21012KT 14/09 A2966 RMK A01 T01430090  RH  070%=      5-min Rain = 0
KHA3 111952Z 20012KT 14/09 A2967 RMK A01 T01420091  RH  071%=      5-min Rain = 0
KHA3 111953Z 21014KT 14/09 A2966 RMK A01 T01420090  RH  071%=      5-min Rain = 0
KHA3 111954Z 21014KT 14/09 A2966 RMK A01 T01420090  RH  071%=      5-min Rain = 0
KHA3 111955Z 22013KT 14/09 A2966 RMK A01 T01420090  RH  071%=      5-min Rain = 0
KHA3 111956Z 21014KT 14/09 A2966 RMK A01 T01420091  RH  071%=      5-min Rain = 0
KHA3 111957Z 21013KT 14/09 A2966 RMK A01 T01420091  RH  071%=      5-min Rain = 0
KHA3 111958Z 20015KT 14/09 A2966 RMK A01 T01420091  RH  071%=      5-min Rain = 0
KHA3 111959Z 21015KT 14/09 A2966 RMK A01 T01420091  RH  071%=      5-min Rain = 0
KHA3 112000Z 21013KT 14/09 A2966 RMK A01 T01420091  RH  071%=      5-min Rain = 0
KHA3 112001Z 20014KT 14/09 A2966 RMK A01 T01420091  RH  071%=      5-min Rain = 0
KHA3 112002Z 21013KT 14/09 A2965 RMK A01 T01420091  RH  072%=      5-min Rain = 0
KHA3 112003Z 20011KT 14/09 A2965 RMK A01 T01420092  RH  072%=      5-min Rain = 0
KHA3 112004Z 21012KT 14/09 A2965 RMK A01 T01420092  RH  072%=      5-min Rain = 0
KHA3 112005Z 21015KT 14/09 A2966 RMK A01 T01420092  RH  072%=      5-min Rain = 0
KHA3 112006Z 21014KT 14/09 A2966 RMK A01 T01430092  RH  072%=      5-min Rain = 0
KHA3 112007Z 21014KT 14/09 A2966 RMK A01 T01420092  RH  072%=      5-min Rain = 0
KHA3 112008Z 21011KT 14/09 A2966 RMK A01 T01430093  RH  072%=      5-min Rain = 0
KHA3 112009Z 20013G18KT 14/09 A2965 RMK A01 T01430094  RH  072%=      5-min Rain = 0
KHA3 112010Z 20012KT 14/09 A2965 RMK A01 T01420093  RH  072%=      5-min Rain = 0
KHA3 112011Z 20012KT 14/09 A2965 RMK A01 T01420094  RH  072%=      5-min Rain = 0
KHA3 112012Z 20012KT 14/09 A2965 RMK A01 T01430094  RH  072%=      5-min Rain = 0
KHA3 112013Z 20013KT 14/09 A2965 RMK A01 T01420094  RH  073%=      5-min Rain = 0
KHA3 112014Z 20012KT 14/09 A2965 RMK A01 T01420094  RH  073%=      5-min Rain = 0
KHA3 112015Z 20013KT 14/09 A2965 RMK A01 T01430094  RH  073%=      5-min Rain = 0
KHA3 112016Z 20013KT 14/09 A2965 RMK A01 T01430094  RH  073%=      5-min Rain = 0
KHA3 112017Z 20011KT 14/09 A2965 RMK A01 T01420094  RH  073%=      5-min Rain = 0
KHA3 112018Z 20013KT 14/09 A2965 RMK A01 T01420094  RH  073%=      5-min Rain = 0
KHA3 112019Z 20010KT 14/09 A2965 RMK A01 T01430094  RH  073%=      5-min Rain = 0
KHA3 112020Z 21011KT 14/10 A2965 RMK A01 T01430095  RH  073%=      5-min Rain = 0
KHA3 112021Z 20013KT 14/10 A2965 RMK A01 T01430095  RH  073%=      5-min Rain = 0
KHA3 112022Z 20012KT 14/10 A2965 RMK A01 T01430095  RH  073%=      5-min Rain = 0
KHA3 112023Z 20012KT 14/10 A2965 RMK A01 T01430095  RH  073%=      5-min Rain = 0
KHA3 112024Z 20012KT 14/10 A2964 RMK A01 T01430095  RH  073%=      5-min Rain = 0
KHA3 112025Z 20010KT 14/10 A2964 RMK A01 T01430096  RH  073%=      5-min Rain = 0
KHA3 112026Z 20012KT 14/10 A2964 RMK A01 T01430096  RH  073%=      5-min Rain = 0
KHA3 112027Z 20014KT 14/10 A2964 RMK A01 T01430096  RH  073%=      5-min Rain = 0
KHA3 112028Z 20013KT 14/10 A2964 RMK A01 T01430096  RH  073%=      5-min Rain = 0
KHA3 112029Z 20014KT 14/10 A2964 RMK A01 T01430096  RH  074%=      5-min Rain = 0
KHA3 112030Z 20012KT 14/10 A2964 RMK A01 T01430096  RH  074%=      5-min Rain = 0
KHA3 112031Z 20012KT 14/10 A2964 RMK A01 T01430098  RH  074%=      5-min Rain = 0
KHA3 112032Z 20012KT 14/10 A2964 RMK A01 T01430097  RH  074%=      5-min Rain = 0
KHA3 112033Z 20012KT 14/10 A2964 RMK A01 T01430097  RH  074%=      5-min Rain = 0
KHA3 112034Z 20014KT 14/10 A2964 RMK A01 T01440098  RH  074%=      5-min Rain = 0
KHA3 112035Z 20014KT 14/10 A2964 RMK A01 T01440097  RH  073%=      5-min Rain = 0
KHA3 112036Z 20012KT 14/10 A2964 RMK A01 T01440097  RH  073%=      5-min Rain = 0
KHA3 112037Z 20011KT 14/10 A2964 RMK A01 T01440097  RH  074%=      5-min Rain = 0
KHA3 112038Z 20012KT 14/10 A2964 RMK A01 T01440098  RH  074%=      5-min Rain = 0
KHA3 112039Z 20009KT 14/10 A2963 RMK A01 T01440098  RH  074%=      5-min Rain = 0
KHA3 112040Z 20011KT 14/10 A2963 RMK A01 T01440098  RH  074%=      5-min Rain = 0
KHA3 112041Z 19013KT 14/10 A2963 RMK A01 T01440097  RH  074%=      5-min Rain = 0
KHA3 112042Z 20014KT 14/10 A2963 RMK A01 T01440097  RH  073%=      5-min Rain = 0
KHA3 112043Z 20011KT 14/10 A2963 RMK A01 T01440097  RH  073%=      5-min Rain = 0
KHA3 112044Z 20012KT 14/10 A2963 RMK A01 T01440097  RH  073%=      5-min Rain = 0
KHA3 112045Z 20011KT 14/10 A2963 RMK A01 T01440098  RH  073%=      5-min Rain = 0
KHA3 112046Z 20012KT 14/10 A2964 RMK A01 T01440098  RH  074%=      5-min Rain = 0
KHA3 112047Z 21011KT 15/10 A2964 RMK A01 T01450098  RH  074%=      5-min Rain = 0
KHA3 112048Z 20010KT 15/10 A2964 RMK A01 T01450098  RH  074%=      5-min Rain = 0
KHA3 112049Z 21012KT 15/10 A2964 RMK A01 T01450099  RH  074%=      5-min Rain = 0
KHA3 112050Z 20012KT 15/10 A2963 RMK A01 T01450098  RH  073%=      5-min Rain = 0
KHA3 112051Z 19011KT 15/10 A2963 RMK A01 T01450098  RH  073%=      5-min Rain = 0
KHA3 112052Z 19011KT 15/10 A2963 RMK A01 T01450098  RH  073%=      5-min Rain = 0
KHA3 112053Z 19011KT 15/10 A2963 RMK A01 T01460099  RH  073%=      5-min Rain = 0
KHA3 112054Z 20011KT 15/10 A2963 RMK A01 T01460099  RH  074%=      5-min Rain = 0
KHA3 112055Z 20012KT 15/10 A2963 RMK A01 T01460099  RH  073%=      5-min Rain = 0
KHA3 112056Z 20013KT 15/10 A2963 RMK A01 T01460099  RH  073%=      5-min Rain = 0
KHA3 112057Z 20014KT 15/10 A2963 RMK A01 T01450098  RH  073%=      5-min Rain = 0
KHA3 112058Z 20013KT 15/10 A2962 RMK A01 T01460099  RH  073%=      5-min Rain = 0
KHA3 112059Z 20011KT 15/10 A2962 RMK A01 T01460099  RH  074%=      5-min Rain = 0
KHA3 112100Z 21014KT 15/10 A2962 RMK A01 T01460099  RH  073%=      5-min Rain = 0
KHA3 112101Z 21013KT 15/10 A2962 RMK A01 T01460099  RH  073%=      5-min Rain = 0
KHA3 112102Z 20012KT 15/10 A2962 RMK A01 T01460099  RH  073%=      5-min Rain = 0
KHA3 112103Z 20012KT 15/10 A2962 RMK A01 T01460099  RH  073%=      5-min Rain = 0
KHA3 112104Z 20012KT 15/10 A2962 RMK A01 T01460099  RH  073%=      5-min Rain = 0
KHA3 112105Z 20015KT 15/10 A2962 RMK A01 T01460098  RH  073%=      5-min Rain = 0
KHA3 112106Z 20014KT 15/10 A2962 RMK A01 T01460099  RH  073%=      5-min Rain = 0
KHA3 112107Z 20015KT 15/10 A2962 RMK A01 T01460098  RH  073%=      5-min Rain = 0
KHA3 112108Z 20016KT 15/10 A2962 RMK A01 T01470098  RH  073%=      5-min Rain = 0
KHA3 112109Z 21014KT 15/10 A2962 RMK A01 T01470098  RH  073%=      5-min Rain = 0
KHA3 112110Z 21012KT 15/10 A2962 RMK A01 T01470098  RH  073%=      5-min Rain = 0
KHA3 112111Z 20013G19KT 15/10 A2962 RMK A01 T01470099  RH  073%=      5-min Rain = 0
KHA3 112112Z 20017KT 15/10 A2962 RMK A01 T01470099  RH  073%=      5-min Rain = 0
KHA3 112113Z 21016KT 15/10 A2962 RMK A01 T01480098  RH  072%=      5-min Rain = 0
KHA3 112114Z 21016KT 15/10 A2962 RMK A01 T01480099  RH  072%=      5-min Rain = 0
KHA3 112115Z 21016G21KT 15/10 A2962 RMK A01 T01480099  RH  072%=      5-min Rain = 0
KHA3 112116Z 21015KT 15/10 A2962 RMK A01 T01480098  RH  072%=      5-min Rain = 0
KHA3 112117Z 21013KT 15/10 A2962 RMK A01 T01480099  RH  072%=      5-min Rain = 0
KHA3 112118Z 21014KT 15/10 A2962 RMK A01 T01480099  RH  072%=      5-min Rain = 0
KHA3 112119Z 21015KT 15/10 A2962 RMK A01 T01490099  RH  072%=      5-min Rain = 0
KHA3 112120Z 20016KT 15/10 A2962 RMK A01 T01490099  RH  072%=      5-min Rain = 0
KHA3 112121Z 21016KT 15/10 A2962 RMK A01 T01490099  RH  072%=      5-min Rain = 0
KHA3 112122Z 21018KT 15/10 A2962 RMK A01 T01490098  RH  072%=      5-min Rain = 0
KHA3 112123Z 21021KT 15/10 A2962 RMK A01 T01490098  RH  072%=      5-min Rain = 0
KHA3 112124Z 20017G22KT 15/10 A2962 RMK A01 T01490098  RH  072%=      5-min Rain = 0
KHA3 112125Z 20018KT 15/10 A2962 RMK A01 T01500099  RH  071%=      5-min Rain = 0
KHA3 112126Z 21016KT 15/10 A2962 RMK A01 T01510099  RH  071%=      5-min Rain = 0
KHA3 112127Z 21020KT 15/10 A2962 RMK A01 T01530100  RH  070%=      5-min Rain = 0
KHA3 112128Z 21016KT 15/10 A2962 RMK A01 T01540099  RH  070%=      5-min Rain = 0
KHA3 112129Z 21016KT 15/10 A2962 RMK A01 T01530100  RH  070%=      5-min Rain = 0
KHA3 112130Z 21016KT 15/10 A2962 RMK A01 T01530100  RH  070%=      5-min Rain = 0
KHA3 112131Z 21015KT 15/10 A2962 RMK A01 T01530100  RH  071%=      5-min Rain = 0
KHA3 112132Z 21016KT 15/10 A2962 RMK A01 T01530100  RH  070%=      5-min Rain = 0
KHA3 112133Z 21014KT 15/10 A2961 RMK A01 T01530099  RH  071%=      5-min Rain = 0
KHA3 112134Z 21014KT 15/10 A2961 RMK A01 T01530100  RH  071%=      5-min Rain = 0
KHA3 112135Z 20015KT 15/10 A2961 RMK A01 T01530099  RH  070%=      5-min Rain = 0
KHA3 112136Z 21017G22KT 15/10 A2962 RMK A01 T01530099  RH  070%=      5-min Rain = 0
KHA3 112137Z 21015KT 15/10 A2961 RMK A01 T01530099  RH  070%=      5-min Rain = 0
KHA3 112138Z 21014KT 15/10 A2961 RMK A01 T01540098  RH  069%=      5-min Rain = 0
KHA3 112139Z 20014KT 16/10 A2961 RMK A01 T01560101  RH  070%=      5-min Rain = 0
KHA3 112140Z 21016KT 16/10 A2961 RMK A01 T01580100  RH  069%=      5-min Rain = 0
KHA3 112141Z 21014KT 16/10 A2961 RMK A01 T01580099  RH  068%=      5-min Rain = 0
KHA3 112142Z 21017G24KT 16/10 A2961 RMK A01 T01590100  RH  068%=      5-min Rain = 0
KHA3 112143Z 21019KT 16/10 A2961 RMK A01 T01600099  RH  067%=      5-min Rain = 0
KHA3 112144Z 20017KT 16/10 A2961 RMK A01 T01610100  RH  067%=      5-min Rain = 0
KHA3 112145Z 19016KT 16/10 A2961 RMK A01 T01630099  RH  066%=      5-min Rain = 0
KHA3 112146Z 20017KT 16/10 A2961 RMK A01 T01630100  RH  066%=      5-min Rain = 0
KHA3 112147Z 20015KT 17/10 A2961 RMK A01 T01650100  RH  065%=      5-min Rain = 0
KHA3 112148Z 20018KT 17/10 A2961 RMK A01 T01660100  RH  065%=      5-min Rain = 0
KHA3 112149Z 20018KT 17/10 A296 RMK A01 T01670100  RH  065%=      5-min Rain = 0
KHA3 112150Z 21017KT 17/10 A2961 RMK A01 T01660099  RH  064%=      5-min Rain = 0
KHA3 112151Z 20016KT 17/10 A296 RMK A01 T01660099  RH  065%=      5-min Rain = 0
KHA3 112152Z 20017KT 17/10 A2961 RMK A01 T01660100  RH  065%=      5-min Rain = 0
KHA3 112153Z 20018KT 17/10 A2961 RMK A01 T01670099  RH  064%=      5-min Rain = 0
KHA3 112154Z 21018KT 17/10 A2961 RMK A01 T01670099  RH  064%=      5-min Rain = 0
KHA3 112155Z 20018KT 17/10 A2961 RMK A01 T01680100  RH  064%=      5-min Rain = 0
KHA3 112156Z 20016KT 17/10 A2961 RMK A01 T01680099  RH  064%=      5-min Rain = 0
KHA3 112157Z 20018KT 17/10 A2961 RMK A01 T01680099  RH  064%=      5-min Rain = 0
KHA3 112158Z 20016G21KT 17/10 A2961 RMK A01 T01680099  RH  064%=      5-min Rain = 0
KHA3 112159Z 20018KT 17/10 A2961 RMK A01 T01680098  RH  063%=      5-min Rain = 0
KHA3 112200Z 20017KT 17/10 A2961 RMK A01 T01680098  RH  063%=      5-min Rain = 0
KHA3 112201Z 21016G22KT 17/10 A2961 RMK A01 T01700099  RH  063%=      5-min Rain = 0
KHA3 112202Z 21017KT 17/10 A2961 RMK A01 T01700097  RH  062%=      5-min Rain = 0
KHA3 112203Z 21017KT 17/10 A2961 RMK A01 T01690097  RH  063%=      5-min Rain = 0
KHA3 112204Z 20016KT 17/10 A296 RMK A01 T01690097  RH  063%=      5-min Rain = 0
KHA3 112205Z 20018G23KT 17/10 A296 RMK A01 T01700097  RH  062%=      5-min Rain = 0
KHA3 112206Z 21019KT 17/10 A296 RMK A01 T01710097  RH  062%=      5-min Rain = 0
KHA3 112207Z 22022KT 17/10 A296 RMK A01 T01710095  RH  061%=      5-min Rain = 0
KHA3 112208Z 22016KT 17/09 A296 RMK A01 T01700093  RH  060%=      5-min Rain = 0
KHA3 112209Z 22018KT 17/10 A296 RMK A01 T01700095  RH  061%=      5-min Rain = 0
KHA3 112210Z 22018KT 17/09 A296 RMK A01 T01700094  RH  061%=      5-min Rain = 0
KHA3 112211Z 22018G23KT 17/09 A296 RMK A01 T01710091  RH  059%=      5-min Rain = 0
KHA3 112212Z 21019G24KT 17/09 A296 RMK A01 T01720093  RH  060%=      5-min Rain = 0
KHA3 112213Z 22019KT 17/09 A296 RMK A01 T01730092  RH  059%=      5-min Rain = 0
KHA3 112214Z 22019G25KT 17/09 A296 RMK A01 T01740091  RH  058%=      5-min Rain = 0
KHA3 112215Z 22016KT 17/09 A296 RMK A01 T01740091  RH  058%=      5-min Rain = 0
KHA3 112216Z 21018G23KT 17/09 A296 RMK A01 T01740090  RH  058%=      5-min Rain = 0
KHA3 112217Z 21022KT 17/09 A296 RMK A01 T01740090  RH  058%=      5-min Rain = 0
KHA3 112218Z 21020KT 17/09 A296 RMK A01 T01740089  RH  057%=      5-min Rain = 0
KHA3 112219Z 21020G26KT 17/09 A296 RMK A01 T01730089  RH  058%=      5-min Rain = 0
KHA3 112220Z 22022G27KT 17/09 A296 RMK A01 T01740088  RH  057%=      5-min Rain = 0
KHA3 112221Z 22022KT 17/09 A296 RMK A01 T01730088  RH  057%=      5-min Rain = 0
KHA3 112222Z 22020KT 17/09 A296 RMK A01 T01730088  RH  057%=      5-min Rain = 0
KHA3 112223Z 21022KT 17/09 A296 RMK A01 T01730087  RH  057%=      5-min Rain = 0
KHA3 112224Z 21022KT 17/09 A296 RMK A01 T01730086  RH  057%=      5-min Rain = 0
KHA3 112225Z 21018KT 17/09 A296 RMK A01 T01730086  RH  057%=      5-min Rain = 0
KHA3 112226Z 21022G28KT 17/09 A296 RMK A01 T01740086  RH  056%=      5-min Rain = 0
KHA3 112227Z 22022KT 17/09 A296 RMK A01 T01740085  RH  056%=      5-min Rain = 0
KHA3 112228Z 22021G27KT 17/09 A296 RMK A01 T01730086  RH  057%=      5-min Rain = 0
KHA3 112229Z 22021G28KT 17/09 A296 RMK A01 T01730087  RH  057%=      5-min Rain = 0
KHA3 112230Z 21024KT 17/09 A296 RMK A01 T01730087  RH  057%=      5-min Rain = 0
KHA3 112231Z 21024KT 17/09 A2959 RMK A01 T01720088  RH  057%=      5-min Rain = 0
KHA3 112232Z 21021KT 17/09 A2959 RMK A01 T01720087  RH  057%=      5-min Rain = 0
KHA3 112233Z 20022KT 17/09 A2959 RMK A01 T01730088  RH  057%=      5-min Rain = 0
KHA3 112234Z 20020KT 17/09 A2959 RMK A01 T01730087  RH  057%=      5-min Rain = 0
KHA3 112235Z 20020KT 17/09 A296 RMK A01 T01740087  RH  057%=      5-min Rain = 0
KHA3 112236Z 21022G27KT 18/09 A296 RMK A01 T01750088  RH  057%=      5-min Rain = 0
KHA3 112237Z 21022G29KT 18/09 A296 RMK A01 T01750087  RH  056%=      5-min Rain = 0
KHA3 112238Z 22019G24KT 18/09 A296 RMK A01 T01750087  RH  056%=      5-min Rain = 0
KHA3 112239Z 21020G27KT 18/09 A296 RMK A01 T01750088  RH  057%=      5-min Rain = 0
KHA3 112240Z 22020G25KT 17/09 A296 RMK A01 T01740087  RH  057%=      5-min Rain = 0
KHA3 112241Z 22021KT 17/09 A296 RMK A01 T01740087  RH  057%=      5-min Rain = 0
KHA3 112242Z 22018KT 17/09 A296 RMK A01 T01740086  RH  056%=      5-min Rain = 0
KHA3 112243Z 21018KT 17/09 A296 RMK A01 T01740087  RH  057%=      5-min Rain = 0
KHA3 112244Z 21017KT 18/09 A296 RMK A01 T01750088  RH  057%=      5-min Rain = 0
KHA3 112245Z 21021KT 17/09 A2959 RMK A01 T01740087  RH  057%=      5-min Rain = 0
KHA3 112246Z 21022KT 18/09 A2959 RMK A01 T01750088  RH  057%=      5-min Rain = 0
KHA3 112247Z 21019KT 18/09 A2959 RMK A01 T01750088  RH  057%=      5-min Rain = 0
KHA3 112248Z 21020G28KT 18/09 A2959 RMK A01 T01750088  RH  057%=      5-min Rain = 0
KHA3 112249Z 21023G28KT 18/09 A2959 RMK A01 T01750086  RH  056%=      5-min Rain = 0
KHA3 112250Z 21021KT 18/09 A2959 RMK A01 T01750086  RH  056%=      5-min Rain = 0
KHA3 112251Z 21019G24KT 18/09 A2959 RMK A01 T01750086  RH  056%=      5-min Rain = 0
KHA3 112252Z 21024KT 18/09 A2959 RMK A01 T01760086  RH  055%=      5-min Rain = 0
KHA3 112253Z 21021KT 18/09 A2959 RMK A01 T01760085  RH  055%=      5-min Rain = 0
KHA3 112254Z 21017KT 18/09 A2959 RMK A01 T01760085  RH  055%=      5-min Rain = 0
KHA3 112255Z 21018KT 18/09 A2959 RMK A01 T01760085  RH  055%=      5-min Rain = 0
KHA3 112256Z 21021KT 18/08 A2959 RMK A01 T01760084  RH  055%=      5-min Rain = 0
KHA3 112257Z 21021KT 18/08 A2959 RMK A01 T01760084  RH  054%=      5-min Rain = 0
KHA3 112258Z 21017KT 18/08 A2959 RMK A01 T01760084  RH  055%=      5-min Rain = 0
KHA3 112259Z 20017G23KT 18/09 A2959 RMK A01 T01770085  RH  055%=      5-min Rain = 0
KHA3 112300Z 20016KT 18/09 A2959 RMK A01 T01770085  RH  055%=      5-min Rain = 0
KHA3 112301Z 21016KT 18/09 A2959 RMK A01 T01770085  RH  055%=      5-min Rain = 0
KHA3 112302Z 22019KT 18/08 A2959 RMK A01 T01770084  RH  055%=      5-min Rain = 0
KHA3 112303Z 21016KT 18/08 A2959 RMK A01 T01770084  RH  055%=      5-min Rain = 0
KHA3 112304Z 22014KT 18/09 A2959 RMK A01 T01770085  RH  055%=      5-min Rain = 0
KHA3 112305Z 21016KT 18/09 A2959 RMK A01 T01760085  RH  055%=      5-min Rain = 0
KHA3 112306Z 21015KT 18/09 A2959 RMK A01 T01760085  RH  055%=      5-min Rain = 0
KHA3 112307Z 21018G23KT 18/09 A2959 RMK A01 T01770085  RH  055%=      5-min Rain = 0
KHA3 112308Z 21018G23KT 18/08 A2959 RMK A01 T01770084  RH  055%=      5-min Rain = 0
KHA3 112309Z 21020KT 18/08 A2959 RMK A01 T01760084  RH  055%=      5-min Rain = 0
KHA3 112310Z 21016KT 18/08 A2959 RMK A01 T01760083  RH  054%=      5-min Rain = 0
KHA3 112311Z 21014KT 18/08 A2959 RMK A01 T01760084  RH  055%=      5-min Rain = 0
KHA3 112312Z 21014KT 18/08 A2959 RMK A01 T01760084  RH  055%=      5-min Rain = 0
KHA3 112313Z 21015KT 18/08 A2959 RMK A01 T01760084  RH  055%=      5-min Rain = 0
KHA3 112314Z 21016KT 18/08 A2959 RMK A01 T01760084  RH  055%=      5-min Rain = 0
KHA3 112315Z 21016KT 18/08 A2959 RMK A01 T01760083  RH  054%=      5-min Rain = 0
KHA3 112316Z 21015KT 18/08 A2959 RMK A01 T01760083  RH  054%=      5-min Rain = 0
KHA3 112317Z 20015KT 18/08 A2959 RMK A01 T01760083  RH  055%=      5-min Rain = 0
KHA3 112318Z 21016KT 18/08 A2958 RMK A01 T01760081  RH  054%=      5-min Rain = 0
KHA3 112319Z 21015G21KT 18/08 A2959 RMK A01 T01750081  RH  054%=      5-min Rain = 0
KHA3 112320Z 21019KT 18/08 A2958 RMK A01 T01750079  RH  053%=      5-min Rain = 0
KHA3 112321Z 21015KT 18/08 A2958 RMK A01 T01750079  RH  053%=      5-min Rain = 0
KHA3 112322Z 21016KT 18/08 A2958 RMK A01 T01750079  RH  053%=      5-min Rain = 0
KHA3 112323Z 21013KT 18/08 A2958 RMK A01 T01760079  RH  053%=      5-min Rain = 0
KHA3 112324Z 20013KT 18/08 A2958 RMK A01 T01750079  RH  053%=      5-min Rain = 0
KHA3 112325Z 20013KT 18/08 A2958 RMK A01 T01750079  RH  053%=      5-min Rain = 0
KHA3 112326Z 21017KT 18/08 A2958 RMK A01 T01750078  RH  053%=      5-min Rain = 0
KHA3 112327Z 21018KT 18/08 A2958 RMK A01 T01750076  RH  052%=      5-min Rain = 0
KHA3 112328Z 21017KT 18/08 A2959 RMK A01 T01760076  RH  052%=      5-min Rain = 0
KHA3 112329Z 21017KT 18/08 A2959 RMK A01 T01760076  RH  052%=      5-min Rain = 0
KHA3 112330Z 21016KT 18/08 A2959 RMK A01 T01760075  RH  051%=      5-min Rain = 0
KHA3 112331Z 21013KT 18/08 A2959 RMK A01 T01760075  RH  051%=      5-min Rain = 0
KHA3 112332Z 20015KT 18/08 A2959 RMK A01 T01760076  RH  052%=      5-min Rain = 0
KHA3 112333Z 20015KT 18/08 A2959 RMK A01 T01750075  RH  052%=      5-min Rain = 0
KHA3 112334Z 20013KT 18/08 A2959 RMK A01 T01750075  RH  052%=      5-min Rain = 0
KHA3 112335Z 21014KT 17/08 A2959 RMK A01 T01740075  RH  052%=      5-min Rain = 0
KHA3 112336Z 20013KT 17/08 A2959 RMK A01 T01730075  RH  053%=      5-min Rain = 0
KHA3 112337Z 20013KT 17/08 A2959 RMK A01 T01730075  RH  053%=      5-min Rain = 0
KHA3 112338Z 20013KT 17/08 A2959 RMK A01 T01720075  RH  053%=      5-min Rain = 0
KHA3 112339Z 20012KT 17/08 A2959 RMK A01 T01720075  RH  053%=      5-min Rain = 0
KHA3 112340Z 20010KT 17/08 A2959 RMK A01 T01720075  RH  053%=      5-min Rain = 0
KHA3 112341Z 19012KT 17/08 A2959 RMK A01 T01710075  RH  053%=      5-min Rain = 0
KHA3 112342Z 19011KT 17/08 A296 RMK A01 T01700075  RH  054%=      5-min Rain = 0
KHA3 112343Z 18009KT 17/08 A296 RMK A01 T01690077  RH  055%=      5-min Rain = 0
KHA3 112344Z 19010KT 17/08 A296 RMK A01 T01670083  RH  058%=      5-min Rain = 0
KHA3 112345Z 18011KT 17/09 A296 RMK A01 T01650087  RH  060%=      5-min Rain = 0
KHA3 112346Z 19010KT 16/09 A296 RMK A01 T01630089  RH  061%=      5-min Rain = 0
KHA3 112347Z 19010KT 16/09 A296 RMK A01 T01620090  RH  062%=      5-min Rain = 0
KHA3 112348Z 19009KT 16/09 A296 RMK A01 T01600090  RH  063%=      5-min Rain = 0
KHA3 112349Z 19010KT 16/09 A296 RMK A01 T01590091  RH  064%=      5-min Rain = 0
KHA3 112350Z 19011KT 16/09 A296 RMK A01 T01590091  RH  064%=      5-min Rain = 0
KHA3 112351Z 18011KT 16/09 A296 RMK A01 T01580091  RH  064%=      5-min Rain = 0
KHA3 112352Z 18011KT 16/09 A296 RMK A01 T01580091  RH  064%=      5-min Rain = 0
KHA3 112353Z 18011KT 16/09 A296 RMK A01 T01570091  RH  065%=      5-min Rain = 0
KHA3 112354Z 18011KT 16/09 A296 RMK A01 T01570091  RH  065%=      5-min Rain = 0
KHA3 112355Z 18010KT 16/09 A296 RMK A01 T01570092  RH  065%=      5-min Rain = 0
KHA3 112356Z 18010KT 16/09 A296 RMK A01 T01560092  RH  065%=      5-min Rain = 0
KHA3 112357Z 18010KT 16/09 A296 RMK A01 T01560092  RH  066%=      5-min Rain = 0
KHA3 112358Z 18010KT 16/09 A296 RMK A01 T01550092  RH  066%=      5-min Rain = 0
KHA3 112359Z 18009KT 16/09 A296 RMK A01 T01550092  RH  066%=      5-min Rain = 0
KHA3 120000Z 18010KT 15/09 A296 RMK A01 T01540091  RH  066%=      5-min Rain = 0
KHA3 120001Z 19011KT 15/09 A296 RMK A01 T01540091  RH  066%=      5-min Rain = 0
KHA3 120002Z 19010KT 15/09 A296 RMK A01 T01540089  RH  065%=      5-min Rain = 0
KHA3 120003Z 19010KT 16/09 A296 RMK A01 T01550089  RH  065%=      5-min Rain = 0
KHA3 120004Z 21011KT 15/09 A2961 RMK A01 T01540086  RH  064%=      5-min Rain = 0
KHA3 120005Z 21011KT 16/08 A2961 RMK A01 T01550082  RH  062%=      5-min Rain = 0
KHA3 120006Z 21011KT 16/08 A2961 RMK A01 T01570077  RH  059%=      5-min Rain = 0
KHA3 120007Z 21013KT 16/07 A2961 RMK A01 T01590072  RH  056%=      5-min Rain = 0
KHA3 120008Z 22013KT 16/07 A2961 RMK A01 T01620069  RH  054%=      5-min Rain = 0
KHA3 120009Z 21014KT 17/07 A2961 RMK A01 T01650068  RH  053%=      5-min Rain = 0
KHA3 120010Z 21012KT 17/07 A2961 RMK A01 T01660068  RH  052%=      5-min Rain = 0
KHA3 120011Z 21013KT 17/07 A2961 RMK A01 T01660068  RH  052%=      5-min Rain = 0
KHA3 120012Z 21013KT 17/07 A2961 RMK A01 T01660067  RH  052%=      5-min Rain = 0
KHA3 120013Z 22013KT 17/07 A2961 RMK A01 T01660067  RH  052%=      5-min Rain = 0
KHA3 120014Z 22013KT 17/07 A2961 RMK A01 T01670067  RH  052%=      5-min Rain = 0
KHA3 120015Z 21013KT 17/07 A2961 RMK A01 T01670067  RH  052%=      5-min Rain = 0
KHA3 120016Z 22012KT 17/07 A2961 RMK A01 T01670067  RH  052%=      5-min Rain = 0
KHA3 120017Z 21012KT 17/07 A2961 RMK A01 T01670067  RH  052%=      5-min Rain = 0
KHA3 120018Z 22013KT 17/07 A2961 RMK A01 T01670067  RH  052%=      5-min Rain = 0
KHA3 120019Z 22011KT 17/07 A2961 RMK A01 T01670067  RH  052%=      5-min Rain = 0
KHA3 120020Z 21011KT 17/07 A2961 RMK A01 T01660067  RH  052%=      5-min Rain = 0
KHA3 120021Z 22010KT 17/07 A2961 RMK A01 T01650067  RH  052%=      5-min Rain = 0
KHA3 120022Z 21012KT 17/07 A2961 RMK A01 T01650067  RH  053%=      5-min Rain = 0
KHA3 120023Z 21011KT 16/07 A2961 RMK A01 T01640067  RH  053%=      5-min Rain = 0
KHA3 120024Z 21011KT 16/07 A2961 RMK A01 T01630067  RH  053%=      5-min Rain = 0
KHA3 120025Z 21012KT 16/07 A2961 RMK A01 T01630067  RH  053%=      5-min Rain = 0
KHA3 120026Z 22012KT 16/07 A2961 RMK A01 T01630067  RH  053%=      5-min Rain = 0
KHA3 120027Z 21013KT 16/07 A2961 RMK A01 T01630067  RH  053%=      5-min Rain = 0
KHA3 120028Z 21011KT 16/07 A2961 RMK A01 T01620066  RH  053%=      5-min Rain = 0
KHA3 120029Z 22014KT 16/07 A2961 RMK A01 T01620066  RH  053%=      5-min Rain = 0
KHA3 120030Z 21013KT 16/07 A2961 RMK A01 T01640065  RH  052%=      5-min Rain = 0
KHA3 120031Z 22011KT 17/07 A2961 RMK A01 T01650066  RH  052%=      5-min Rain = 0
KHA3 120032Z 22012KT 16/07 A2961 RMK A01 T01640066  RH  052%=      5-min Rain = 0
KHA3 120033Z 22013KT 16/07 A2961 RMK A01 T01630066  RH  052%=      5-min Rain = 0
KHA3 120034Z 22014KT 16/07 A2961 RMK A01 T01640066  RH  052%=      5-min Rain = 0
KHA3 120035Z 21014KT 17/07 A2961 RMK A01 T01650065  RH  051%=      5-min Rain = 0
KHA3 120036Z 22014KT 17/07 A2961 RMK A01 T01660065  RH  051%=      5-min Rain = 0
KHA3 120037Z 22013KT 17/06 A2961 RMK A01 T01660064  RH  051%=      5-min Rain = 0
KHA3 120038Z 22014G19KT 17/06 A2961 RMK A01 T01670064  RH  051%=      5-min Rain = 0
KHA3 120039Z 22013KT 17/06 A2961 RMK A01 T01660063  RH  050%=      5-min Rain = 0
KHA3 120040Z 22014KT 17/06 A2961 RMK A01 T01670063  RH  050%=      5-min Rain = 0
KHA3 120041Z 23013KT 17/06 A2962 RMK A01 T01670062  RH  050%=      5-min Rain = 0
KHA3 120042Z 23012KT 17/06 A2962 RMK A01 T01670062  RH  050%=      5-min Rain = 0
KHA3 120043Z 23015KT 17/06 A2962 RMK A01 T01650059  RH  050%=      5-min Rain = 0
KHA3 120044Z 24017KT 17/05 A2962 RMK A01 T01670052  RH  047%=      5-min Rain = 0
KHA3 120045Z 26017G25KT 17/05 A2963 RMK A01 T01690053  RH  046%=      5-min Rain = 0
KHA3 120046Z 25028KT 17/04 A2963 RMK A01 T01670037  RH  042%=      5-min Rain = 0
KHA3 120047Z 27026G32KT 17/02 A2963 RMK A01 T01680018  RH  036%=      5-min Rain = 0
KHA3 120048Z 26021KT 17/02 A2963 RMK A01 T01690024  RH  038%=      5-min Rain = 0
KHA3 120049Z 28021KT 17/02 A2964 RMK A01 T01670023  RH  038%=      5-min Rain = 0
KHA3 120050Z 28024G31KT 17/02 A2964 RMK A01 T01660020  RH  037%=      5-min Rain = 0
KHA3 120051Z 29023G30KT 17/02 A2964 RMK A01 T01670023  RH  038%=      5-min Rain = 0
KHA3 120052Z 29029KT 17/01 A2965 RMK A01 T01660007  RH  034%=      5-min Rain = 0
KHA3 120053Z 28027KT 16/M02 A2965 RMK A01 T01641017  RH  029%=      5-min Rain = 0
KHA3 120054Z 29027G34KT 16/M03 A2965 RMK A01 T01621026  RH  027%=      5-min Rain = 0
KHA3 120055Z 28029G34KT 16/M03 A2965 RMK A01 T01601030  RH  027%=      5-min Rain = 0
KHA3 120056Z 29030G35KT 16/M03 A2965 RMK A01 T01591032  RH  027%=      5-min Rain = 0
KHA3 120057Z 29027KT 16/M03 A2966 RMK A01 T01581033  RH  027%=      5-min Rain = 0
KHA3 120058Z 29028KT 16/M03 A2966 RMK A01 T01571034  RH  027%=      5-min Rain = 0
KHA3 120059Z 29032G41KT 16/M03 A2967 RMK A01 T01561032  RH  027%=      5-min Rain = 0
KHA3 120100Z 30028G33KT 16/M03 A2967 RMK A01 T01571030  RH  028%=      5-min Rain = 0
KHA3 120101Z 30026KT 16/M03 A2967 RMK A01 T01581027  RH  028%=      5-min Rain = 0
KHA3 120102Z 30025KT 16/M03 A2967 RMK A01 T01591026  RH  028%=      5-min Rain = 0
KHA3 120103Z 30024G29KT 16/M03 A2967 RMK A01 T01591026  RH  028%=      5-min Rain = 0
KHA3 120104Z 30023KT 16/M03 A2967 RMK A01 T01581029  RH  028%=      5-min Rain = 0
KHA3 120105Z 30022G30KT 16/M03 A2967 RMK A01 T01581031  RH  027%=      5-min Rain = 0
KHA3 120106Z 30022G28KT 16/M04 A2967 RMK A01 T01571035  RH  027%=      5-min Rain = 0
KHA3 120107Z 30018KT 16/M04 A2968 RMK A01 T01561035  RH  027%=      5-min Rain = 0
KHA3 120108Z 30018KT 15/M04 A2968 RMK A01 T01541036  RH  027%=      5-min Rain = 0
KHA3 120109Z 30022KT 15/M04 A2968 RMK A01 T01531041  RH  026%=      5-min Rain = 0
KHA3 120110Z 30021KT 15/M04 A2968 RMK A01 T01531044  RH  025%=      5-min Rain = 0
KHA3 120111Z 30017KT 15/M04 A2968 RMK A01 T01531043  RH  026%=      5-min Rain = 0
KHA3 120112Z 30018KT 15/M04 A2968 RMK A01 T01511043  RH  026%=      5-min Rain = 0
KHA3 120113Z 30019KT 15/M04 A2968 RMK A01 T01501044  RH  026%=      5-min Rain = 0
KHA3 120114Z 30018KT 15/M05 A2968 RMK A01 T01501045  RH  026%=      5-min Rain = 0
KHA3 120115Z 30015KT 15/M04 A2968 RMK A01 T01491044  RH  026%=      5-min Rain = 0
KHA3 120116Z 29018KT 15/M05 A2968 RMK A01 T01481045  RH  026%=      5-min Rain = 0
KHA3 120117Z 29018KT 15/M05 A2968 RMK A01 T01481045  RH  026%=      5-min Rain = 0
KHA3 120118Z 29017KT 15/M05 A2968 RMK A01 T01471045  RH  026%=      5-min Rain = 0
KHA3 120119Z 29021KT 15/M05 A2969 RMK A01 T01461046  RH  026%=      5-min Rain = 0
KHA3 120120Z 29021G26KT 15/M05 A2969 RMK A01 T01461047  RH  026%=      5-min Rain = 0
KHA3 120121Z 28021KT 15/M05 A2969 RMK A01 T01481048  RH  025%=      5-min Rain = 0
KHA3 120122Z 28020G25KT 15/M05 A2969 RMK A01 T01491048  RH  025%=      5-min Rain = 0
KHA3 120123Z 28022KT 15/M05 A2969 RMK A01 T01491047  RH  025%=      5-min Rain = 0
KHA3 120124Z 28023G28KT 15/M05 A297 RMK A01 T01481047  RH  026%=      5-min Rain = 0
KHA3 120125Z 28024G29KT 15/M05 A297 RMK A01 T01481047  RH  026%=      5-min Rain = 0
KHA3 120126Z 28030G36KT 15/M05 A297 RMK A01 T01471048  RH  026%=      5-min Rain = 0
KHA3 120127Z 28030G36KT 15/M05 A297 RMK A01 T01461049  RH  026%=      5-min Rain = 0
KHA3 120128Z 28027G33KT 15/M05 A297 RMK A01 T01451051  RH  025%=      5-min Rain = 0
KHA3 120129Z 28029KT 14/M05 A297 RMK A01 T01441051  RH  025%=      5-min Rain = 0
KHA3 120130Z 28025G30KT 14/M05 A2971 RMK A01 T01431051  RH  026%=      5-min Rain = 0
KHA3 120131Z 28024KT 14/M05 A2971 RMK A01 T01421050  RH  026%=      5-min Rain = 0
KHA3 120132Z 28020KT 14/M05 A2971 RMK A01 T01411048  RH  027%=      5-min Rain = 0
KHA3 120133Z 27023G29KT 14/M05 A2971 RMK A01 T01401048  RH  027%=      5-min Rain = 0
KHA3 120134Z 28027KT 14/M05 A2971 RMK A01 T01401053  RH  026%=      5-min Rain = 0
KHA3 120135Z 28026KT 14/M06 A2971 RMK A01 T01401055  RH  025%=      5-min Rain = 0
KHA3 120136Z 28027KT 14/M06 A2971 RMK A01 T01401057  RH  025%=      5-min Rain = 0
KHA3 120137Z 28023KT 14/M06 A2971 RMK A01 T01401058  RH  025%=      5-min Rain = 0
KHA3 120138Z 28020KT 14/M06 A2971 RMK A01 T01381057  RH  025%=      5-min Rain = 0
KHA3 120139Z 28022KT 14/M06 A2971 RMK A01 T01361057  RH  026%=      5-min Rain = 0
KHA3 120140Z 28019KT 14/M06 A2971 RMK A01 T01351057  RH  026%=      5-min Rain = 0
KHA3 120141Z 28019KT 13/M06 A2971 RMK A01 T01341057  RH  026%=      5-min Rain = 0
KHA3 120142Z 28020KT 13/M06 A2972 RMK A01 T01331057  RH  026%=      5-min Rain = 0
KHA3 120143Z 28016KT 13/M06 A2972 RMK A01 T01331057  RH  026%=      5-min Rain = 0
KHA3 120144Z 27016KT 13/M06 A2972 RMK A01 T01311057  RH  027%=      5-min Rain = 0
KHA3 120145Z 28016KT 13/M06 A2972 RMK A01 T01311056  RH  027%=      5-min Rain = 0
KHA3 120146Z 27016KT 13/M06 A2972 RMK A01 T01301056  RH  027%=      5-min Rain = 0
KHA3 120147Z 27017KT 13/M06 A2972 RMK A01 T01291056  RH  027%=      5-min Rain = 0
KHA3 120148Z 27018KT 13/M06 A2972 RMK A01 T01291058  RH  027%=      5-min Rain = 0
KHA3 120149Z 27017G22KT 13/M06 A2972 RMK A01 T01291059  RH  026%=      5-min Rain = 0
KHA3 120150Z 27017KT 13/M06 A2972 RMK A01 T01301059  RH  026%=      5-min Rain = 0
KHA3 120151Z 27016G21KT 13/M06 A2972 RMK A01 T01291060  RH  026%=      5-min Rain = 0
KHA3 120152Z 27018KT 13/M06 A2972 RMK A01 T01281060  RH  026%=      5-min Rain = 0
KHA3 120153Z 27018KT 13/M06 A2972 RMK A01 T01281062  RH  026%=      5-min Rain = 0
KHA3 120154Z 27017KT 13/M06 A2972 RMK A01 T01281064  RH  026%=      5-min Rain = 0
KHA3 120155Z 27017KT 13/M06 A2972 RMK A01 T01281064  RH  026%=      5-min Rain = 0
KHA3 120156Z 27019KT 13/M07 A2972 RMK A01 T01281067  RH  025%=      5-min Rain = 0
KHA3 120157Z 27016KT 13/M07 A2972 RMK A01 T01281068  RH  025%=      5-min Rain = 0
KHA3 120158Z 27017KT 13/M07 A2972 RMK A01 T01271067  RH  025%=      5-min Rain = 0
KHA3 120159Z 27017KT 13/M07 A2972 RMK A01 T01261069  RH  025%=      5-min Rain = 0
KHA3 120200Z 27015KT 13/M07 A2972 RMK A01 T01271070  RH  025%=      5-min Rain = 0
KHA3 120201Z 27016KT 13/M07 A2972 RMK A01 T01251069  RH  025%=      5-min Rain = 0
KHA3 120202Z 27015KT 12/M07 A2972 RMK A01 T01241071  RH  025%=      5-min Rain = 0
KHA3 120203Z 27016KT 12/M07 A2973 RMK A01 T01241072  RH  025%=      5-min Rain = 0
KHA3 120204Z 26017KT 12/M07 A2973 RMK A01 T01241074  RH  024%=      5-min Rain = 0
KHA3 120205Z 27016KT 12/M08 A2973 RMK A01 T01241075  RH  024%=      5-min Rain = 0
KHA3 120206Z 27016KT 12/M07 A2973 RMK A01 T01241074  RH  024%=      5-min Rain = 0
KHA3 120207Z 27018KT 12/M08 A2973 RMK A01 T01231078  RH  024%=      5-min Rain = 0
KHA3 120208Z 27017KT 12/M08 A2973 RMK A01 T01231078  RH  024%=      5-min Rain = 0
KHA3 120209Z 27017KT 12/M08 A2973 RMK A01 T01231080  RH  023%=      5-min Rain = 0
KHA3 120210Z 27019KT 12/M08 A2973 RMK A01 T01231081  RH  023%=      5-min Rain = 0
KHA3 120211Z 27016KT 12/M08 A2973 RMK A01 T01241083  RH  023%=      5-min Rain = 0
KHA3 120212Z 26020KT 12/M08 A2973 RMK A01 T01231084  RH  023%=      5-min Rain = 0
KHA3 120213Z 27019KT 12/M09 A2974 RMK A01 T01231088  RH  022%=      5-min Rain = 0
KHA3 120214Z 26019KT 12/M09 A2974 RMK A01 T01241089  RH  022%=      5-min Rain = 0
KHA3 120215Z 26016KT 12/M09 A2974 RMK A01 T01241090  RH  022%=      5-min Rain = 0
KHA3 120216Z 27018G23KT 12/M09 A2974 RMK A01 T01231089  RH  022%=      5-min Rain = 0
KHA3 120217Z 26019KT 12/M09 A2974 RMK A01 T01221091  RH  022%=      5-min Rain = 0
KHA3 120218Z 26018KT 12/M09 A2974 RMK A01 T01221092  RH  022%=      5-min Rain = 0
KHA3 120219Z 26018KT 12/M09 A2974 RMK A01 T01211092  RH  022%=      5-min Rain = 0
KHA3 120220Z 26020KT 12/M09 A2974 RMK A01 T01211093  RH  022%=      5-min Rain = 0
KHA3 120221Z 26019KT 12/M09 A2974 RMK A01 T01221093  RH  021%=      5-min Rain = 0
KHA3 120222Z 26018KT 12/M09 A2974 RMK A01 T01221093  RH  021%=      5-min Rain = 0
KHA3 120223Z 26017KT 12/M09 A2974 RMK A01 T01221092  RH  022%=      5-min Rain = 0
KHA3 120224Z 26018KT 12/M09 A2974 RMK A01 T01201091  RH  022%=      5-min Rain = 0
KHA3 120225Z 26017KT 12/M09 A2974 RMK A01 T01191093  RH  022%=      5-min Rain = 0
KHA3 120226Z 26018KT 12/M09 A2974 RMK A01 T01191094  RH  022%=      5-min Rain = 0
KHA3 120227Z 26017KT 12/M10 A2974 RMK A01 T01181095  RH  021%=      5-min Rain = 0
KHA3 120228Z 26019G24KT 12/M10 A2975 RMK A01 T01171096  RH  021%=      5-min Rain = 0
KHA3 120229Z 26020KT 12/M10 A2975 RMK A01 T01171099  RH  021%=      5-min Rain = 0
KHA3 120230Z 26020KT 12/M10 A2975 RMK A01 T01171099  RH  021%=      5-min Rain = 0
KHA3 120231Z 26021G26KT 12/M10 A2975 RMK A01 T01181101  RH  021%=      5-min Rain = 0
KHA3 120232Z 26019KT 12/M10 A2975 RMK A01 T01181102  RH  020%=      5-min Rain = 0
KHA3 120233Z 26019G24KT 12/M10 A2975 RMK A01 T01181102  RH  020%=      5-min Rain = 0
KHA3 120234Z 27018KT 12/M10 A2975 RMK A01 T01181103  RH  020%=      5-min Rain = 0
KHA3 120235Z 26017KT 12/M10 A2975 RMK A01 T01181103  RH  020%=      5-min Rain = 0
KHA3 120236Z 26017G22KT 12/M10 A2975 RMK A01 T01171104  RH  020%=      5-min Rain = 0
KHA3 120237Z 26016KT 12/M10 A2975 RMK A01 T01151104  RH  020%=      5-min Rain = 0
KHA3 120238Z 26015KT 11/M10 A2975 RMK A01 T01141103  RH  021%=      5-min Rain = 0
KHA3 120239Z 26015KT 11/M10 A2975 RMK A01 T01131102  RH  021%=      5-min Rain = 0
KHA3 120240Z 26015KT 11/M10 A2975 RMK A01 T01121103  RH  021%=      5-min Rain = 0
KHA3 120241Z 26015KT 11/M10 A2975 RMK A01 T01121103  RH  021%=      5-min Rain = 0
KHA3 120242Z 26015KT 11/M10 A2975 RMK A01 T01111104  RH  021%=      5-min Rain = 0
KHA3 120243Z 26016KT 11/M10 A2975 RMK A01 T01101104  RH  021%=      5-min Rain = 0
KHA3 120244Z 26016KT 11/M11 A2975 RMK A01 T01101105  RH  021%=      5-min Rain = 0
KHA3 120245Z 26017KT 11/M11 A2975 RMK A01 T01101106  RH  021%=      5-min Rain = 0
KHA3 120246Z 26015KT 11/M11 A2975 RMK A01 T01101107  RH  021%=      5-min Rain = 0
KHA3 120247Z 26016KT 11/M11 A2975 RMK A01 T01101106  RH  021%=      5-min Rain = 0
KHA3 120248Z 26015KT 11/M11 A2975 RMK A01 T01091106  RH  021%=      5-min Rain = 0
KHA3 120249Z 25015KT 11/M11 A2975 RMK A01 T01081105  RH  021%=      5-min Rain = 0
KHA3 120250Z 25013KT 11/M10 A2975 RMK A01 T01071104  RH  022%=      5-min Rain = 0
KHA3 120251Z 25013KT 10/M10 A2975 RMK A01 T01041104  RH  022%=      5-min Rain = 0
KHA3 120252Z 25013KT 10/M10 A2975 RMK A01 T01031103  RH  022%=      5-min Rain = 0
KHA3 120253Z 25014KT 10/M10 A2975 RMK A01 T01011104  RH  022%=      5-min Rain = 0
KHA3 120254Z 25014KT 10/M11 A2975 RMK A01 T01011105  RH  022%=      5-min Rain = 0
KHA3 120255Z 25014KT 10/M11 A2975 RMK A01 T01011105  RH  022%=      5-min Rain = 0
KHA3 120256Z 25017KT 10/M11 A2976 RMK A01 T01011106  RH  022%=      5-min Rain = 0
KHA3 120257Z 25016KT 10/M11 A2976 RMK A01 T01021109  RH  021%=      5-min Rain = 0
KHA3 120258Z 26015KT 10/M11 A2976 RMK A01 T01031109  RH  021%=      5-min Rain = 0
KHA3 120259Z 26016KT 10/M11 A2976 RMK A01 T01031110  RH  021%=      5-min Rain = 0
KHA3 120300Z 26013KT 10/M11 A2976 RMK A01 T01031110  RH  021%=      5-min Rain = 0
KHA3 120301Z 26014KT 10/M11 A2976 RMK A01 T01011109  RH  022%=      5-min Rain = 0
KHA3 120302Z 26015KT 10/M11 A2976 RMK A01 T01001109  RH  022%=      5-min Rain = 0
KHA3 120303Z 26014KT 10/M11 A2976 RMK A01 T01001110  RH  022%=      5-min Rain = 0
KHA3 120304Z 25013KT 10/M11 A2976 RMK A01 T01001109  RH  022%=      5-min Rain = 0
KHA3 120305Z 26015KT 10/M11 A2976 RMK A01 T00981109  RH  022%=      5-min Rain = 0
KHA3 120306Z 25014KT 10/M11 A2976 RMK A01 T00981109  RH  022%=      5-min Rain = 0
KHA3 120307Z 25014KT 10/M11 A2976 RMK A01 T00971108  RH  022%=      5-min Rain = 0
KHA3 120308Z 25014KT 10/M11 A2976 RMK A01 T00971109  RH  022%=      5-min Rain = 0
KHA3 120309Z 25014KT 10/M11 A2977 RMK A01 T00971109  RH  022%=      5-min Rain = 0
KHA3 120310Z 25014KT 10/M11 A2977 RMK A01 T00961108  RH  023%=      5-min Rain = 0
KHA3 120311Z 25014KT 10/M11 A2977 RMK A01 T00961108  RH  023%=      5-min Rain = 0
KHA3 120312Z 25013KT 10/M11 A2977 RMK A01 T00951108  RH  023%=      5-min Rain = 0
KHA3 120313Z 25012KT 09/M11 A2977 RMK A01 T00941108  RH  023%=      5-min Rain = 0
KHA3 120314Z 25012KT 09/M11 A2977 RMK A01 T00921108  RH  023%=      5-min Rain = 0
KHA3 120315Z 25012KT 09/M11 A2977 RMK A01 T00921107  RH  023%=      5-min Rain = 0
KHA3 120316Z 25012KT 09/M11 A2977 RMK A01 T00911108  RH  023%=      5-min Rain = 0
KHA3 120317Z 25012KT 09/M11 A2977 RMK A01 T00911108  RH  023%=      5-min Rain = 0
KHA3 120318Z 25012KT 09/M11 A2977 RMK A01 T00911108  RH  023%=      5-min Rain = 0
KHA3 120319Z 25012KT 09/M11 A2977 RMK A01 T00911107  RH  024%=      5-min Rain = 0
KHA3 120320Z 25011KT 09/M11 A2977 RMK A01 T00901106  RH  024%=      5-min Rain = 0
KHA3 120321Z 25011KT 09/M11 A2977 RMK A01 T00901106  RH  024%=      5-min Rain = 0
KHA3 120322Z 25011KT 09/M11 A2977 RMK A01 T00891106  RH  024%=      5-min Rain = 0
KHA3 120323Z 25012KT 09/M11 A2977 RMK A01 T00891106  RH  024%=      5-min Rain = 0
KHA3 120324Z 25012KT 09/M11 A2977 RMK A01 T00891106  RH  024%=      5-min Rain = 0
KHA3 120325Z 25012KT 09/M11 A2978 RMK A01 T00891105  RH  024%=      5-min Rain = 0
KHA3 120326Z 25011KT 09/M11 A2978 RMK A01 T00881105  RH  024%=      5-min Rain = 0
KHA3 120327Z 25011KT 09/M10 A2978 RMK A01 T00871104  RH  025%=      5-min Rain = 0
KHA3 120328Z 25011KT 09/M10 A2978 RMK A01 T00871104  RH  025%=      5-min Rain = 0
KHA3 120329Z 25010KT 09/M10 A2978 RMK A01 T00871104  RH  025%=      5-min Rain = 0
KHA3 120330Z 25010KT 09/M10 A2978 RMK A01 T00861104  RH  025%=      5-min Rain = 0
KHA3 120331Z 24011KT 09/M10 A2978 RMK A01 T00861104  RH  025%=      5-min Rain = 0
KHA3 120332Z 25010KT 09/M11 A2978 RMK A01 T00861105  RH  025%=      5-min Rain = 0
KHA3 120333Z 24010KT 09/M11 A2978 RMK A01 T00861106  RH  025%=      5-min Rain = 0
KHA3 120334Z 24011KT 09/M11 A2978 RMK A01 T00861106  RH  025%=      5-min Rain = 0
KHA3 120335Z 24011KT 09/M11 A2978 RMK A01 T00861105  RH  025%=      5-min Rain = 0
KHA3 120336Z 24011KT 09/M11 A2978 RMK A01 T00861106  RH  024%=      5-min Rain = 0
KHA3 120337Z 24011KT 09/M11 A2978 RMK A01 T00861107  RH  024%=      5-min Rain = 0
KHA3 120338Z 24011KT 09/M11 A2978 RMK A01 T00861107  RH  024%=      5-min Rain = 0
KHA3 120339Z 24011KT 09/M11 A2979 RMK A01 T00871106  RH  024%=      5-min Rain = 0
KHA3 120340Z 24010KT 09/M11 A2979 RMK A01 T00871107  RH  024%=      5-min Rain = 0
KHA3 120341Z 24010KT 09/M11 A2979 RMK A01 T00861106  RH  024%=      5-min Rain = 0
KHA3 120342Z 25010KT 08/M11 A2979 RMK A01 T00841106  RH  025%=      5-min Rain = 0
KHA3 120343Z 24010KT 08/M11 A2979 RMK A01 T00831106  RH  025%=      5-min Rain = 0
KHA3 120344Z 24010KT 08/M11 A2979 RMK A01 T00831106  RH  025%=      5-min Rain = 0
KHA3 120345Z 24011KT 08/M11 A2979 RMK A01 T00821106  RH  025%=      5-min Rain = 0
KHA3 120346Z 24011KT 08/M11 A2979 RMK A01 T00831106  RH  025%=      5-min Rain = 0
KHA3 120347Z 24011KT 08/M11 A2979 RMK A01 T00831105  RH  025%=      5-min Rain = 0
KHA3 120348Z 24011KT 08/M10 A2979 RMK A01 T00831104  RH  025%=      5-min Rain = 0
KHA3 120349Z 23012KT 08/M10 A2979 RMK A01 T00831104  RH  025%=      5-min Rain = 0
KHA3 120350Z 24013KT 08/M11 A2979 RMK A01 T00831105  RH  025%=      5-min Rain = 0
KHA3 120351Z 24014KT 08/M10 A2979 RMK A01 T00831104  RH  025%=      5-min Rain = 0
KHA3 120352Z 24014KT 08/M10 A2979 RMK A01 T00831104  RH  025%=      5-min Rain = 0
KHA3 120353Z 24014KT 08/M11 A2979 RMK A01 T00841105  RH  025%=      5-min Rain = 0
KHA3 120354Z 24013KT 08/M11 A2979 RMK A01 T00841105  RH  025%=      5-min Rain = 0
KHA3 120355Z 25012KT 08/M10 A2979 RMK A01 T00841103  RH  025%=      5-min Rain = 0
KHA3 120356Z 25012KT 08/M10 A2979 RMK A01 T00831102  RH  026%=      5-min Rain = 0
KHA3 120357Z 24011KT 08/M10 A2979 RMK A01 T00821101  RH  026%=      5-min Rain = 0
KHA3 120358Z 24013KT 08/M10 A2979 RMK A01 T00811100  RH  026%=      5-min Rain = 0
KHA3 120359Z 24012KT 08/M10 A2979 RMK A01 T00821101  RH  026%=      5-min Rain = 0
KHA3 120400Z 25011KT 08/M10 A2979 RMK A01 T00821101  RH  026%=      5-min Rain = 0
KHA3 120401Z 25011KT 08/M10 A2979 RMK A01 T00821099  RH  027%=      5-min Rain = 0
KHA3 120402Z 25011KT 08/M10 A2979 RMK A01 T00811099  RH  027%=      5-min Rain = 0
KHA3 120403Z 25012KT 08/M10 A2979 RMK A01 T00801098  RH  027%=      5-min Rain = 0
KHA3 120404Z 24010KT 08/M10 A2979 RMK A01 T00781097  RH  028%=      5-min Rain = 0
KHA3 120405Z 26011KT 08/M10 A298 RMK A01 T00771096  RH  028%=      5-min Rain = 0
KHA3 120406Z 25010KT 08/M10 A298 RMK A01 T00761095  RH  029%=      5-min Rain = 0
KHA3 120407Z 25010KT 08/M10 A298 RMK A01 T00751095  RH  029%=      5-min Rain = 0
KHA3 120408Z 26011KT 08/M10 A298 RMK A01 T00751095  RH  029%=      5-min Rain = 0
KHA3 120409Z 26010KT 08/M10 A298 RMK A01 T00761095  RH  029%=      5-min Rain = 0
KHA3 120410Z 26011KT 08/M10 A298 RMK A01 T00761095  RH  029%=      5-min Rain = 0
KHA3 120411Z 27011KT 08/M09 A298 RMK A01 T00771094  RH  028%=      5-min Rain = 0
KHA3 120412Z 27012KT 08/M09 A298 RMK A01 T00781093  RH  029%=      5-min Rain = 0
KHA3 120413Z 26014KT 08/M09 A298 RMK A01 T00781093  RH  029%=      5-min Rain = 0
KHA3 120414Z 27014KT 08/M09 A298 RMK A01 T00801093  RH  028%=      5-min Rain = 0
KHA3 120415Z 27016KT 08/M09 A298 RMK A01 T00831093  RH  028%=      5-min Rain = 0
KHA3 120416Z 27016KT 09/M09 A298 RMK A01 T00851092  RH  027%=      5-min Rain = 0
KHA3 120417Z 27017G22KT 09/M09 A2981 RMK A01 T00861093  RH  027%=      5-min Rain = 0
KHA3 120418Z 27016KT 09/M09 A2981 RMK A01 T00871093  RH  027%=      5-min Rain = 0
KHA3 120419Z 27016KT 09/M09 A2981 RMK A01 T00871093  RH  027%=      5-min Rain = 0
KHA3 120420Z 28016KT 09/M09 A2981 RMK A01 T00871093  RH  027%=      5-min Rain = 0
KHA3 120421Z 28015KT 09/M09 A2981 RMK A01 T00861092  RH  027%=      5-min Rain = 0
KHA3 120422Z 28017KT 09/M09 A2982 RMK A01 T00861092  RH  027%=      5-min Rain = 0
KHA3 120423Z 28015KT 09/M09 A2982 RMK A01 T00861092  RH  027%=      5-min Rain = 0
KHA3 120424Z 28016KT 09/M09 A2982 RMK A01 T00871092  RH  027%=      5-min Rain = 0
KHA3 120425Z 28014KT 09/M09 A2982 RMK A01 T00871091  RH  027%=      5-min Rain = 0
KHA3 120426Z 28016G21KT 09/M09 A2982 RMK A01 T00871091  RH  028%=      5-min Rain = 0
KHA3 120427Z 28016KT 09/M09 A2983 RMK A01 T00861091  RH  028%=      5-min Rain = 0
KHA3 120428Z 28017G22KT 09/M09 A2983 RMK A01 T00861090  RH  028%=      5-min Rain = 0
KHA3 120429Z 28017KT 09/M09 A2983 RMK A01 T00871090  RH  027%=      5-min Rain = 0
KHA3 120430Z 28017G22KT 09/M09 A2983 RMK A01 T00871090  RH  028%=      5-min Rain = 0
KHA3 120431Z 28017KT 09/M09 A2983 RMK A01 T00881089  RH  028%=      5-min Rain = 0
KHA3 120432Z 28016KT 09/M09 A2983 RMK A01 T00871090  RH  028%=      5-min Rain = 0
KHA3 120433Z 28018KT 09/M09 A2983 RMK A01 T00881090  RH  028%=      5-min Rain = 0
KHA3 120434Z 28018KT 09/M09 A2983 RMK A01 T00881089  RH  028%=      5-min Rain = 0
KHA3 120435Z 28016KT 09/M09 A2983 RMK A01 T00881089  RH  028%=      5-min Rain = 0
KHA3 120436Z 28018KT 09/M09 A2984 RMK A01 T00881089  RH  028%=      5-min Rain = 0
KHA3 120437Z 29016KT 09/M09 A2984 RMK A01 T00871090  RH  028%=      5-min Rain = 0
KHA3 120438Z 29016KT 09/M09 A2985 RMK A01 T00871089  RH  028%=      5-min Rain = 0
KHA3 120439Z 29016KT 09/M09 A2985 RMK A01 T00871088  RH  028%=      5-min Rain = 0
KHA3 120440Z 29015KT 09/M09 A2985 RMK A01 T00871088  RH  028%=      5-min Rain = 0
KHA3 120441Z 30015KT 09/M09 A2985 RMK A01 T00861088  RH  028%=      5-min Rain = 0
KHA3 120442Z 30015KT 09/M09 A2985 RMK A01 T00871088  RH  028%=      5-min Rain = 0
KHA3 120443Z 30016KT 09/M09 A2985 RMK A01 T00861088  RH  028%=      5-min Rain = 0
KHA3 120444Z 30016KT 09/M09 A2985 RMK A01 T00861088  RH  028%=      5-min Rain = 0
KHA3 120445Z 30018KT 09/M09 A2985 RMK A01 T00871088  RH  028%=      5-min Rain = 0
KHA3 120446Z 29016KT 09/M09 A2985 RMK A01 T00871086  RH  028%=      5-min Rain = 0
KHA3 120447Z 29016KT 09/M09 A2985 RMK A01 T00881086  RH  028%=      5-min Rain = 0
KHA3 120448Z 29016KT 09/M09 A2986 RMK A01 T00881086  RH  028%=      5-min Rain = 0
KHA3 120449Z 29017KT 09/M09 A2986 RMK A01 T00871086  RH  029%=      5-min Rain = 0
KHA3 120450Z 29016KT 09/M09 A2986 RMK A01 T00871085  RH  029%=      5-min Rain = 0
KHA3 120451Z 30016KT 09/M09 A2986 RMK A01 T00861085  RH  029%=      5-min Rain = 0
KHA3 120452Z 30016KT 09/M08 A2986 RMK A01 T00871084  RH  029%=      5-min Rain = 0
KHA3 120453Z 30016KT 09/M08 A2986 RMK A01 T00871084  RH  029%=      5-min Rain = 0
KHA3 120454Z 30016KT 09/M08 A2987 RMK A01 T00871082  RH  029%=      5-min Rain = 0
KHA3 120455Z 31016KT 09/M08 A2987 RMK A01 T00881076  RH  031%=      5-min Rain = 0
KHA3 120456Z 31016KT 09/M07 A2987 RMK A01 T00881071  RH  032%=      5-min Rain = 0
KHA3 120457Z 31018KT 09/M07 A2987 RMK A01 T00891066  RH  033%=      5-min Rain = 0
KHA3 120458Z 31016KT 09/M06 A2987 RMK A01 T00911062  RH  033%=      5-min Rain = 0
KHA3 120459Z 31015KT 09/M06 A2987 RMK A01 T00921063  RH  033%=      5-min Rain = 0
KHA3 120500Z 31015G20KT 09/M06 A2987 RMK A01 T00921062  RH  033%=      5-min Rain = 0
KHA3 120501Z 30015KT 09/M06 A2988 RMK A01 T00911063  RH  033%=      5-min Rain = 0
KHA3 120502Z 30017KT 09/M06 A2988 RMK A01 T00901063  RH  033%=      5-min Rain = 0
KHA3 120503Z 31018KT 09/M06 A2988 RMK A01 T00901059  RH  034%=      5-min Rain = 0
KHA3 120504Z 30017KT 09/M06 A2988 RMK A01 T00901055  RH  035%=      5-min Rain = 0
KHA3 120505Z 31018G24KT 09/M05 A2989 RMK A01 T00901052  RH  036%=      5-min Rain = 0
KHA3 120506Z 31018KT 09/M05 A2989 RMK A01 T00911045  RH  038%=      5-min Rain = 0
KHA3 120507Z 31015KT 09/M04 A2989 RMK A01 T00911041  RH  039%=      5-min Rain = 0
KHA3 120508Z 32014KT 09/M04 A2989 RMK A01 T00901039  RH  040%=      5-min Rain = 0
KHA3 120509Z 32016KT 09/M03 A2989 RMK A01 T00891031  RH  043%=      5-min Rain = 0
KHA3 120510Z 32016KT 09/M02 A2989 RMK A01 T00891022  RH  046%=      5-min Rain = 0
KHA3 120511Z 32014KT 09/M01 A299 RMK A01 T00901013  RH  049%=      5-min Rain = 0
KHA3 120512Z 33018KT 09/M00 A299 RMK A01 T00911004  RH  052%=      5-min Rain = 0
KHA3 120513Z 33017KT 09/00 A299 RMK A01 T00920004  RH  054%=      5-min Rain = 0
KHA3 120514Z 33019KT 09/01 A299 RMK A01 T00930011  RH  056%=      5-min Rain = 0
KHA3 120515Z 33019G24KT 09/02 A299 RMK A01 T00940018  RH  059%=      5-min Rain = 0
KHA3 120516Z 33017KT 10/02 A299 RMK A01 T00950021  RH  060%=      5-min Rain = 0
KHA3 120517Z 34020KT 10/02 A299 RMK A01 T00950023  RH  061%=      5-min Rain = 0
KHA3 120518Z 34019G24KT 10/02 A299 RMK A01 T00950024  RH  061%=      5-min Rain = 0
KHA3 120519Z 34021KT 10/03 A2991 RMK A01 T00950025  RH  062%=      5-min Rain = 0
KHA3 120520Z 34019KT 10/03 A2991 RMK A01 T00950026  RH  062%=      5-min Rain = 0
KHA3 120521Z 35022G29KT 10/03 A2991 RMK A01 T00950027  RH  062%=      5-min Rain = 0
KHA3 120522Z 35024G30KT 10/03 A2991 RMK A01 T00960028  RH  062%=      5-min Rain = 0
KHA3 120523Z 35019KT 10/03 A2991 RMK A01 T00980029  RH  062%=      5-min Rain = 0
KHA3 120524Z 35024G29KT 10/03 A2991 RMK A01 T00970028  RH  062%=      5-min Rain = 0
KHA3 120525Z 35020KT 10/03 A2992 RMK A01 T00980029  RH  062%=      5-min Rain = 0
KHA3 120526Z 35019G25KT 10/03 A2992 RMK A01 T00970028  RH  062%=      5-min Rain = 0
KHA3 120527Z 35019KT 10/03 A2992 RMK A01 T00970028  RH  062%=      5-min Rain = 0
KHA3 120528Z 35018G23KT 10/03 A2992 RMK A01 T00960028  RH  062%=      5-min Rain = 0
KHA3 120529Z 34024G30KT 10/03 A2993 RMK A01 T00960028  RH  063%=      5-min Rain = 0
KHA3 120530Z 35021G27KT 10/03 A2993 RMK A01 T00960029  RH  063%=      5-min Rain = 0
KHA3 120531Z 35024G31KT 10/03 A2993 RMK A01 T00960030  RH  063%=      5-min Rain = 0
KHA3 120532Z 34023G28KT 10/03 A2993 RMK A01 T00950030  RH  064%=      5-min Rain = 0
KHA3 120533Z 35023KT 10/03 A2993 RMK A01 T00950030  RH  064%=      5-min Rain = 0
KHA3 120534Z 35029KT 09/03 A2993 RMK A01 T00940031  RH  064%=      5-min Rain = 0
KHA3 120535Z 35025G32KT 09/03 A2993 RMK A01 T00940031  RH  065%=      5-min Rain = 0
KHA3 120536Z 35023KT 09/03 A2994 RMK A01 T00940031  RH  065%=      5-min Rain = 0
KHA3 120537Z 36024KT 09/03 A2994 RMK A01 T00930031  RH  065%=      5-min Rain = 0
KHA3 120538Z 35023G31KT 09/03 A2994 RMK A01 T00920030  RH  065%=      5-min Rain = 0
KHA3 120539Z 36023G28KT 09/03 A2994 RMK A01 T00910030  RH  065%=      5-min Rain = 0
KHA3 120540Z 35021G27KT 09/03 A2994 RMK A01 T00910030  RH  065%=      5-min Rain = 0
KHA3 120541Z 35022G27KT 09/03 A2994 RMK A01 T00910030  RH  066%=      5-min Rain = 0
KHA3 120542Z 35021KT 09/03 A2994 RMK A01 T00910030  RH  066%=      5-min Rain = 0
KHA3 120543Z 35021KT 09/03 A2995 RMK A01 T00900029  RH  066%=      5-min Rain = 0
KHA3 120544Z 36022KT 09/03 A2995 RMK A01 T00890029  RH  066%=      5-min Rain = 0
KHA3 120545Z 36019G24KT 09/03 A2995 RMK A01 T00890029  RH  066%=      5-min Rain = 0
KHA3 120546Z 00020KT 09/03 A2995 RMK A01 T00890030  RH  066%=      5-min Rain = 0
KHA3 120547Z 36021KT 09/03 A2995 RMK A01 T00880029  RH  067%=      5-min Rain = 0
KHA3 120548Z 00018KT 09/03 A2995 RMK A01 T00880030  RH  067%=      5-min Rain = 0
KHA3 120549Z 01018KT 09/03 A2995 RMK A01 T00880029  RH  067%=      5-min Rain = 0
KHA3 120550Z 01019KT 09/03 A2995 RMK A01 T00870029  RH  067%=      5-min Rain = 0
KHA3 120551Z 01018KT 09/03 A2995 RMK A01 T00870030  RH  067%=      5-min Rain = 0
KHA3 120552Z 36018KT 09/03 A2995 RMK A01 T00870029  RH  067%=      5-min Rain = 0
KHA3 120553Z 36015KT 09/03 A2996 RMK A01 T00860029  RH  067%=      5-min Rain = 0
KHA3 120554Z 00017KT 09/03 A2996 RMK A01 T00850029  RH  068%=      5-min Rain = 0
KHA3 120555Z 36016KT 09/03 A2996 RMK A01 T00850029  RH  068%=      5-min Rain = 0
KHA3 120556Z 36015KT 09/03 A2996 RMK A01 T00850029  RH  068%=      5-min Rain = 0
KHA3 120557Z 35014KT 08/03 A2996 RMK A01 T00840029  RH  068%=      5-min Rain = 0
KHA3 120558Z 35017KT 08/03 A2996 RMK A01 T00830029  RH  069%=      5-min Rain = 0
KHA3 120559Z 35018KT 08/03 A2997 RMK A01 T00830029  RH  069%=      5-min Rain = 0

Page generated in 0.1304 seconds.